Observation data for Palo Duro Canyon State Park Floor on 01/18/2019      Previous  Date  Next       Current Mesonet Observations  Soil Data  Daily Summary Page  Observations in Plain Language
KPD2 180600Z 12008KT 10/M02 A2998 RMK A01 T00961018  RH  045%=      5-min Rain = 0
KPD2 180601Z 12008KT 10/M02 A2998 RMK A01 T00961018  RH  045%=      5-min Rain = 0
KPD2 180602Z 12006KT 10/M02 A2998 RMK A01 T00961018  RH  045%=      5-min Rain = 0
KPD2 180603Z 12006KT 10/M02 A2998 RMK A01 T00951017  RH  045%=      5-min Rain = 0
KPD2 180604Z 11006KT 09/M02 A2998 RMK A01 T00931017  RH  046%=      5-min Rain = 0
KPD2 180605Z 12006KT 09/M02 A2998 RMK A01 T00931017  RH  046%=      5-min Rain = 0
KPD2 180606Z 12006KT 09/M02 A2998 RMK A01 T00921016  RH  047%=      5-min Rain = 0
KPD2 180607Z 11006KT 09/M02 A2998 RMK A01 T00911016  RH  047%=      5-min Rain = 0
KPD2 180608Z 10006KT 09/M02 A2998 RMK A01 T00901016  RH  047%=      5-min Rain = 0
KPD2 180609Z 10007KT 09/M02 A2997 RMK A01 T00901016  RH  048%=      5-min Rain = 0
KPD2 180610Z 11006KT 09/M02 A2997 RMK A01 T00911016  RH  047%=      5-min Rain = 0
KPD2 180611Z 12006KT 09/M02 A2997 RMK A01 T00921016  RH  047%=      5-min Rain = 0
KPD2 180612Z 09006KT 09/M02 A2997 RMK A01 T00921016  RH  046%=      5-min Rain = 0
KPD2 180613Z 10007KT 09/M02 A2997 RMK A01 T00931017  RH  046%=      5-min Rain = 0
KPD2 180614Z 12005KT 09/M02 A2997 RMK A01 T00931017  RH  046%=      5-min Rain = 0
KPD2 180615Z 12004KT 10/M02 A2997 RMK A01 T00951018  RH  045%=      5-min Rain = 0
KPD2 180616Z 11007KT 10/M02 A2997 RMK A01 T00961018  RH  045%=      5-min Rain = 0
KPD2 180617Z 11004KT 10/M02 A2997 RMK A01 T00971018  RH  045%=      5-min Rain = 0
KPD2 180618Z 12002KT 10/M02 A2997 RMK A01 T00971018  RH  045%=      5-min Rain = 0
KPD2 180619Z 20002KT 10/M02 A2997 RMK A01 T00961017  RH  045%=      5-min Rain = 0
KPD2 180620Z 14003KT 10/M02 A2997 RMK A01 T00961018  RH  045%=      5-min Rain = 0
KPD2 180621Z 10003KT 10/M02 A2997 RMK A01 T00971017  RH  045%=      5-min Rain = 0
KPD2 180622Z 14004KT 10/M02 A2997 RMK A01 T00981017  RH  045%=      5-min Rain = 0
KPD2 180623Z 19002KT 10/M02 A2997 RMK A01 T00981018  RH  044%=      5-min Rain = 0
KPD2 180624Z 20003G13KT 10/M02 A2997 RMK A01 T01001018  RH  044%=      5-min Rain = 0
KPD2 180625Z 20007G12KT 10/M02 A2997 RMK A01 T01031017  RH  043%=      5-min Rain = 0
KPD2 180626Z 21007G13KT 11/M02 A2997 RMK A01 T01071018  RH  042%=      5-min Rain = 0
KPD2 180627Z 21006KT 11/M02 A2996 RMK A01 T01101018  RH  041%=      5-min Rain = 0
KPD2 180628Z 19009G14KT 11/M02 A2996 RMK A01 T01111018  RH  040%=      5-min Rain = 0
KPD2 180629Z 20005KT 11/M02 A2997 RMK A01 T01121018  RH  040%=      5-min Rain = 0
KPD2 180630Z 23007KT 11/M02 A2997 RMK A01 T01131018  RH  040%=      5-min Rain = 0
KPD2 180631Z 23008KT 11/M02 A2996 RMK A01 T01141018  RH  040%=      5-min Rain = 0
KPD2 180632Z 23006KT 12/M02 A2996 RMK A01 T01151018  RH  040%=      5-min Rain = 0
KPD2 180633Z 22007KT 12/M02 A2996 RMK A01 T01151018  RH  040%=      5-min Rain = 0
KPD2 180634Z 25005KT 11/M02 A2996 RMK A01 T01141018  RH  040%=      5-min Rain = 0
KPD2 180635Z 20006G11KT 11/M02 A2996 RMK A01 T01141018  RH  040%=      5-min Rain = 0
KPD2 180636Z 29003KT 11/M02 A2996 RMK A01 T01141018  RH  040%=      5-min Rain = 0
KPD2 180637Z 29007G12KT 11/M02 A2996 RMK A01 T01141019  RH  040%=      5-min Rain = 0
KPD2 180638Z 27007KT 11/M02 A2996 RMK A01 T01131018  RH  040%=      5-min Rain = 0
KPD2 180639Z 22007KT 11/M02 A2996 RMK A01 T01141017  RH  040%=      5-min Rain = 0
KPD2 180640Z 28005KT 12/M02 A2996 RMK A01 T01151017  RH  040%=      5-min Rain = 0
KPD2 180641Z 33004KT 11/M02 A2996 RMK A01 T01131018  RH  040%=      5-min Rain = 0
KPD2 180642Z 34001KT 11/M02 A2996 RMK A01 T01121019  RH  040%=      5-min Rain = 0
KPD2 180643Z 29003KT 11/M02 A2996 RMK A01 T01101019  RH  041%=      5-min Rain = 0
KPD2 180644Z 25005KT 11/M02 A2996 RMK A01 T01091018  RH  041%=      5-min Rain = 0
KPD2 180645Z 28007G14KT 11/M02 A2996 RMK A01 T01101017  RH  041%=      5-min Rain = 0
KPD2 180646Z 28005G11KT 11/M02 A2996 RMK A01 T01101017  RH  041%=      5-min Rain = 0
KPD2 180647Z 28004KT 11/M02 A2996 RMK A01 T01101017  RH  041%=      5-min Rain = 0
KPD2 180648Z 32005KT 11/M02 A2995 RMK A01 T01111017  RH  041%=      5-min Rain = 0
KPD2 180649Z 26004KT 11/M02 A2996 RMK A01 T01091018  RH  041%=      5-min Rain = 0
KPD2 180650Z 30004KT 11/M02 A2996 RMK A01 T01081017  RH  042%=      5-min Rain = 0
KPD2 180651Z 33003KT 11/M02 A2995 RMK A01 T01081017  RH  042%=      5-min Rain = 0
KPD2 180652Z 31002KT 11/M02 A2995 RMK A01 T01081017  RH  042%=      5-min Rain = 0
KPD2 180653Z 30002KT 11/M02 A2995 RMK A01 T01071017  RH  042%=      5-min Rain = 0
KPD2 180654Z 24004KT 11/M02 A2995 RMK A01 T01071016  RH  042%=      5-min Rain = 0
KPD2 180655Z 23006KT 11/M02 A2995 RMK A01 T01081015  RH  042%=      5-min Rain = 0
KPD2 180656Z 19003KT 11/M01 A2995 RMK A01 T01101013  RH  042%=      5-min Rain = 0
KPD2 180657Z 25005KT 11/M01 A2994 RMK A01 T01131013  RH  042%=      5-min Rain = 0
KPD2 180658Z 23008G15KT 11/M01 A2994 RMK A01 T01141013  RH  041%=      5-min Rain = 0
KPD2 180659Z 18005KT 12/M01 A2994 RMK A01 T01151013  RH  041%=      5-min Rain = 0
KPD2 180700Z 20009KT 12/M01 A2994 RMK A01 T01151013  RH  041%=      5-min Rain = 0
KPD2 180701Z 27003KT 12/M01 A2994 RMK A01 T01161013  RH  041%=      5-min Rain = 0
KPD2 180702Z 22013KT 12/M01 A2994 RMK A01 T01161013  RH  041%=      5-min Rain = 0
KPD2 180703Z 22011G22KT 12/M01 A2994 RMK A01 T01151013  RH  041%=      5-min Rain = 0
KPD2 180704Z 22010G18KT 12/M01 A2994 RMK A01 T01161013  RH  041%=      5-min Rain = 0
KPD2 180705Z 22011G17KT 12/M01 A2994 RMK A01 T01151012  RH  041%=      5-min Rain = 0
KPD2 180706Z 21010G16KT 12/M01 A2994 RMK A01 T01151012  RH  041%=      5-min Rain = 0
KPD2 180707Z 22015G21KT 11/M01 A2994 RMK A01 T01141012  RH  041%=      5-min Rain = 0
KPD2 180708Z 22008G15KT 11/M01 A2994 RMK A01 T01141012  RH  042%=      5-min Rain = 0
KPD2 180709Z 23011G20KT 11/M01 A2994 RMK A01 T01141011  RH  042%=      5-min Rain = 0
KPD2 180710Z 24009G14KT 11/M01 A2994 RMK A01 T01141011  RH  042%=      5-min Rain = 0
KPD2 180711Z 22008G15KT 11/M01 A2994 RMK A01 T01141011  RH  042%=      5-min Rain = 0
KPD2 180712Z 22003KT 11/M01 A2993 RMK A01 T01141011  RH  042%=      5-min Rain = 0
KPD2 180713Z 21006G13KT 11/M01 A2993 RMK A01 T01131011  RH  042%=      5-min Rain = 0
KPD2 180714Z 23006G11KT 11/M01 A2993 RMK A01 T01121011  RH  042%=      5-min Rain = 0
KPD2 180715Z 22014G22KT 11/M01 A2993 RMK A01 T01121011  RH  042%=      5-min Rain = 0
KPD2 180716Z 23010G15KT 11/M01 A2993 RMK A01 T01121011  RH  042%=      5-min Rain = 0
KPD2 180717Z 22009G15KT 11/M01 A2993 RMK A01 T01121011  RH  042%=      5-min Rain = 0
KPD2 180718Z 23010G17KT 11/M01 A2993 RMK A01 T01121011  RH  042%=      5-min Rain = 0
KPD2 180719Z 23009KT 11/M01 A2993 RMK A01 T01121011  RH  042%=      5-min Rain = 0
KPD2 180720Z 22005KT 11/M01 A2993 RMK A01 T01111011  RH  043%=      5-min Rain = 0
KPD2 180721Z 23008G14KT 11/M01 A2993 RMK A01 T01101012  RH  043%=      5-min Rain = 0
KPD2 180722Z 22008G16KT 11/M01 A2992 RMK A01 T01101012  RH  043%=      5-min Rain = 0
KPD2 180723Z 22013G19KT 11/M01 A2992 RMK A01 T01101011  RH  043%=      5-min Rain = 0
KPD2 180724Z 24008G14KT 11/M01 A2992 RMK A01 T01101011  RH  043%=      5-min Rain = 0
KPD2 180725Z 23010KT 11/M01 A2992 RMK A01 T01101012  RH  043%=      5-min Rain = 0
KPD2 180726Z 22011KT 11/M01 A2992 RMK A01 T01091012  RH  043%=      5-min Rain = 0
KPD2 180727Z 23011KT 11/M01 A2992 RMK A01 T01091012  RH  043%=      5-min Rain = 0
KPD2 180728Z 24009G16KT 11/M01 A2992 RMK A01 T01081012  RH  043%=      5-min Rain = 0
KPD2 180729Z 22005G10KT 11/M01 A2992 RMK A01 T01081012  RH  043%=      5-min Rain = 0
KPD2 180730Z 24011G18KT 11/M01 A2992 RMK A01 T01071012  RH  044%=      5-min Rain = 0
KPD2 180731Z 23008G15KT 11/M01 A2991 RMK A01 T01071012  RH  044%=      5-min Rain = 0
KPD2 180732Z 23006G11KT 11/M01 A2991 RMK A01 T01071012  RH  044%=      5-min Rain = 0
KPD2 180733Z 23006G11KT 11/M01 A2991 RMK A01 T01061012  RH  044%=      5-min Rain = 0
KPD2 180734Z 20004G10KT 11/M01 A2991 RMK A01 T01051013  RH  044%=      5-min Rain = 0
KPD2 180735Z 22011G18KT 11/M01 A2991 RMK A01 T01051013  RH  044%=      5-min Rain = 0
KPD2 180736Z 23009G18KT 11/M01 A2991 RMK A01 T01051013  RH  044%=      5-min Rain = 0
KPD2 180737Z 21005KT 11/M01 A299 RMK A01 T01051013  RH  044%=      5-min Rain = 0
KPD2 180738Z 22006G12KT 10/M01 A2991 RMK A01 T01041013  RH  044%=      5-min Rain = 0
KPD2 180739Z 24008G15KT 10/M01 A2991 RMK A01 T01041014  RH  044%=      5-min Rain = 0
KPD2 180740Z 24009G14KT 10/M01 A299 RMK A01 T01041014  RH  044%=      5-min Rain = 0
KPD2 180741Z 25004KT 11/M01 A299 RMK A01 T01051014  RH  043%=      5-min Rain = 0
KPD2 180742Z 24008KT 10/M02 A2991 RMK A01 T01041015  RH  043%=      5-min Rain = 0
KPD2 180743Z 22006G12KT 10/M02 A299 RMK A01 T01041015  RH  043%=      5-min Rain = 0
KPD2 180744Z 24007G14KT 10/M02 A299 RMK A01 T01041015  RH  043%=      5-min Rain = 0
KPD2 180745Z 22005G10KT 10/M02 A299 RMK A01 T01041015  RH  043%=      5-min Rain = 0
KPD2 180746Z 25004KT 10/M02 A299 RMK A01 T01041015  RH  043%=      5-min Rain = 0
KPD2 180747Z 23004G11KT 10/M02 A299 RMK A01 T01031016  RH  044%=      5-min Rain = 0
KPD2 180748Z 28006G12KT 10/M02 A299 RMK A01 T01021016  RH  044%=      5-min Rain = 0
KPD2 180749Z 25007G13KT 10/M02 A299 RMK A01 T01021016  RH  044%=      5-min Rain = 0
KPD2 180750Z 27004KT 10/M02 A299 RMK A01 T01021016  RH  044%=      5-min Rain = 0
KPD2 180751Z 29003KT 10/M02 A299 RMK A01 T01011017  RH  044%=      5-min Rain = 0
KPD2 180752Z 25006G11KT 10/M02 A299 RMK A01 T01001017  RH  044%=      5-min Rain = 0
KPD2 180753Z 27004KT 10/M02 A2991 RMK A01 T00991017  RH  044%=      5-min Rain = 0
KPD2 180754Z 32003KT 10/M02 A2991 RMK A01 T00991017  RH  044%=      5-min Rain = 0
KPD2 180755Z 28003KT 10/M02 A2991 RMK A01 T00981017  RH  044%=      5-min Rain = 0
KPD2 180756Z 29003KT 10/M02 A2991 RMK A01 T00971018  RH  045%=      5-min Rain = 0
KPD2 180757Z 34002KT 10/M02 A299 RMK A01 T00971018  RH  045%=      5-min Rain = 0
KPD2 180758Z 06004KT 10/M02 A299 RMK A01 T00971017  RH  045%=      5-min Rain = 0
KPD2 180759Z 06003KT 10/M02 A299 RMK A01 T00961018  RH  045%=      5-min Rain = 0
KPD2 180800Z 11003KT 10/M02 A299 RMK A01 T00961018  RH  045%=      5-min Rain = 0
KPD2 180801Z 20006G11KT 10/M02 A2989 RMK A01 T00961018  RH  045%=      5-min Rain = 0
KPD2 180802Z 27004KT 10/M02 A2989 RMK A01 T00961019  RH  045%=      5-min Rain = 0
KPD2 180803Z 32004KT 10/M02 A299 RMK A01 T00951019  RH  045%=      5-min Rain = 0
KPD2 180804Z 21003KT 10/M02 A299 RMK A01 T00951019  RH  045%=      5-min Rain = 0
KPD2 180805Z 24006KT 09/M02 A299 RMK A01 T00941020  RH  045%=      5-min Rain = 0
KPD2 180806Z 25007G14KT 09/M02 A299 RMK A01 T00941020  RH  044%=      5-min Rain = 0
KPD2 180807Z 26005KT 10/M02 A299 RMK A01 T00951021  RH  044%=      5-min Rain = 0
KPD2 180808Z 21004KT 10/M02 A299 RMK A01 T00961020  RH  044%=      5-min Rain = 0
KPD2 180809Z 25006G12KT 10/M02 A299 RMK A01 T00961021  RH  044%=      5-min Rain = 0
KPD2 180810Z 24007G13KT 10/M02 A299 RMK A01 T00961021  RH  044%=      5-min Rain = 0
KPD2 180811Z 25008G13KT 10/M02 A299 RMK A01 T00961021  RH  044%=      5-min Rain = 0
KPD2 180812Z 29010KT 10/M02 A299 RMK A01 T00951021  RH  044%=      5-min Rain = 0
KPD2 180813Z 32008KT 10/M02 A299 RMK A01 T00951021  RH  044%=      5-min Rain = 0
KPD2 180814Z 29006KT 10/M02 A299 RMK A01 T00951020  RH  044%=      5-min Rain = 0
KPD2 180815Z 27007KT 10/M02 A299 RMK A01 T00951021  RH  044%=      5-min Rain = 0
KPD2 180816Z 29005KT 10/M02 A2991 RMK A01 T00951021  RH  044%=      5-min Rain = 0
KPD2 180817Z 31005KT 10/M02 A2991 RMK A01 T00961021  RH  044%=      5-min Rain = 0
KPD2 180818Z 35003KT 10/M02 A2991 RMK A01 T00971021  RH  044%=      5-min Rain = 0
KPD2 180819Z 01003KT 10/M02 A2991 RMK A01 T00971021  RH  044%=      5-min Rain = 0
KPD2 180820Z 04001KT 10/M02 A299 RMK A01 T00961021  RH  044%=      5-min Rain = 0
KPD2 180821Z 21002KT 09/M02 A299 RMK A01 T00941022  RH  044%=      5-min Rain = 0
KPD2 180822Z 18002KT 09/M02 A299 RMK A01 T00931021  RH  044%=      5-min Rain = 0
KPD2 180823Z 20003KT 09/M02 A299 RMK A01 T00931021  RH  045%=      5-min Rain = 0
KPD2 180824Z 23002KT 09/M02 A299 RMK A01 T00921022  RH  045%=      5-min Rain = 0
KPD2 180825Z 24001KT 09/M02 A299 RMK A01 T00921022  RH  045%=      5-min Rain = 0
KPD2 180826Z 00000KT 09/M02 A299 RMK A01 T00901023  RH  045%=      5-min Rain = 0
KPD2 180827Z 24000KT 09/M02 A299 RMK A01 T00891022  RH  046%=      5-min Rain = 0
KPD2 180828Z 23002KT 09/M02 A299 RMK A01 T00871023  RH  046%=      5-min Rain = 0
KPD2 180829Z 21004KT 09/M02 A299 RMK A01 T00861023  RH  046%=      5-min Rain = 0
KPD2 180830Z 23004KT 09/M02 A299 RMK A01 T00861023  RH  046%=      5-min Rain = 0
KPD2 180831Z 21007KT 09/M02 A299 RMK A01 T00881022  RH  046%=      5-min Rain = 0
KPD2 180832Z 23002KT 09/M02 A299 RMK A01 T00891022  RH  046%=      5-min Rain = 0
KPD2 180833Z 16003KT 09/M02 A299 RMK A01 T00901022  RH  045%=      5-min Rain = 0
KPD2 180834Z 25006KT 09/M02 A299 RMK A01 T00901022  RH  045%=      5-min Rain = 0
KPD2 180835Z 28004KT 09/M02 A299 RMK A01 T00881023  RH  046%=      5-min Rain = 0
KPD2 180836Z 32001KT 09/M02 A299 RMK A01 T00881023  RH  046%=      5-min Rain = 0
KPD2 180837Z 23006KT 09/M02 A299 RMK A01 T00871023  RH  046%=      5-min Rain = 0
KPD2 180838Z 30005KT 09/M02 A299 RMK A01 T00871023  RH  046%=      5-min Rain = 0
KPD2 180839Z 34002KT 09/M02 A299 RMK A01 T00871022  RH  046%=      5-min Rain = 0
KPD2 180840Z 25003KT 09/M02 A299 RMK A01 T00881022  RH  046%=      5-min Rain = 0
KPD2 180841Z 28007KT 09/M02 A299 RMK A01 T00881022  RH  046%=      5-min Rain = 0
KPD2 180842Z 27004KT 09/M02 A299 RMK A01 T00881022  RH  046%=      5-min Rain = 0
KPD2 180843Z 25003KT 09/M02 A299 RMK A01 T00891022  RH  046%=      5-min Rain = 0
KPD2 180844Z 13001KT 09/M02 A299 RMK A01 T00881022  RH  046%=      5-min Rain = 0
KPD2 180845Z 15001KT 09/M02 A299 RMK A01 T00871022  RH  046%=      5-min Rain = 0
KPD2 180846Z 29003KT 09/M02 A299 RMK A01 T00851023  RH  046%=      5-min Rain = 0
KPD2 180847Z 16003KT 08/M02 A2989 RMK A01 T00841023  RH  047%=      5-min Rain = 0
KPD2 180848Z 23003KT 08/M02 A2989 RMK A01 T00841022  RH  047%=      5-min Rain = 0
KPD2 180849Z 23001KT 08/M02 A2989 RMK A01 T00841022  RH  047%=      5-min Rain = 0
KPD2 180850Z 22004KT 09/M02 A2989 RMK A01 T00851022  RH  047%=      5-min Rain = 0
KPD2 180851Z 15002KT 09/M02 A2989 RMK A01 T00851021  RH  047%=      5-min Rain = 0
KPD2 180852Z 16002KT 09/M02 A2989 RMK A01 T00851022  RH  047%=      5-min Rain = 0
KPD2 180853Z 20006KT 09/M02 A2989 RMK A01 T00851021  RH  047%=      5-min Rain = 0
KPD2 180854Z 23003KT 09/M02 A2989 RMK A01 T00851021  RH  047%=      5-min Rain = 0
KPD2 180855Z 21003KT 09/M02 A2989 RMK A01 T00861020  RH  047%=      5-min Rain = 0
KPD2 180856Z 24008KT 09/M02 A2989 RMK A01 T00851020  RH  048%=      5-min Rain = 0
KPD2 180857Z 22002KT 09/M02 A2989 RMK A01 T00851019  RH  048%=      5-min Rain = 0
KPD2 180858Z 24001KT 08/M02 A2989 RMK A01 T00841019  RH  048%=      5-min Rain = 0
KPD2 180859Z 16000KT 08/M02 A2989 RMK A01 T00831020  RH  049%=      5-min Rain = 0
KPD2 180900Z 18003KT 08/M02 A2989 RMK A01 T00811020  RH  049%=      5-min Rain = 0
KPD2 180901Z 11002KT 08/M02 A2989 RMK A01 T00801019  RH  049%=      5-min Rain = 0
KPD2 180902Z 24002KT 08/M02 A2989 RMK A01 T00801019  RH  049%=      5-min Rain = 0
KPD2 180903Z 22002KT 08/M02 A2989 RMK A01 T00801019  RH  050%=      5-min Rain = 0
KPD2 180904Z 19002KT 08/M02 A2989 RMK A01 T00801019  RH  050%=      5-min Rain = 0
KPD2 180905Z 21001KT 08/M02 A2989 RMK A01 T00811019  RH  049%=      5-min Rain = 0
KPD2 180906Z 36002KT 08/M02 A2989 RMK A01 T00821019  RH  049%=      5-min Rain = 0
KPD2 180907Z 03004KT 08/M02 A2989 RMK A01 T00811020  RH  049%=      5-min Rain = 0
KPD2 180908Z 33003KT 08/M02 A2989 RMK A01 T00791020  RH  050%=      5-min Rain = 0
KPD2 180909Z 24004KT 08/M02 A2989 RMK A01 T00791019  RH  050%=      5-min Rain = 0
KPD2 180910Z 21004KT 08/M02 A299 RMK A01 T00791018  RH  050%=      5-min Rain = 0
KPD2 180911Z 25003G8KT 08/M02 A2989 RMK A01 T00801018  RH  050%=      5-min Rain = 0
KPD2 180912Z 24005KT 08/M02 A2989 RMK A01 T00801018  RH  050%=      5-min Rain = 0
KPD2 180913Z 25007KT 08/M02 A2989 RMK A01 T00801017  RH  050%=      5-min Rain = 0
KPD2 180914Z 26004G9KT 08/M02 A2989 RMK A01 T00801017  RH  050%=      5-min Rain = 0
KPD2 180915Z 25005KT 08/M02 A2989 RMK A01 T00811017  RH  050%=      5-min Rain = 0
KPD2 180916Z 24004KT 08/M02 A2989 RMK A01 T00811017  RH  050%=      5-min Rain = 0
KPD2 180917Z 21003KT 08/M02 A2989 RMK A01 T00811017  RH  050%=      5-min Rain = 0
KPD2 180918Z 27005KT 08/M02 A2989 RMK A01 T00811018  RH  050%=      5-min Rain = 0
KPD2 180919Z 25004KT 08/M02 A2989 RMK A01 T00811018  RH  050%=      5-min Rain = 0
KPD2 180920Z 24007KT 08/M02 A2989 RMK A01 T00801018  RH  050%=      5-min Rain = 0
KPD2 180921Z 19001KT 08/M02 A2989 RMK A01 T00801018  RH  050%=      5-min Rain = 0
KPD2 180922Z 10002KT 08/M02 A2989 RMK A01 T00801018  RH  050%=      5-min Rain = 0
KPD2 180923Z 10001KT 08/M02 A2989 RMK A01 T00801018  RH  050%=      5-min Rain = 0
KPD2 180924Z 16002KT 08/M02 A2989 RMK A01 T00791019  RH  050%=      5-min Rain = 0
KPD2 180925Z 25007KT 08/M02 A2989 RMK A01 T00781018  RH  050%=      5-min Rain = 0
KPD2 180926Z 20004KT 08/M02 A2989 RMK A01 T00781019  RH  050%=      5-min Rain = 0
KPD2 180927Z 13003KT 08/M02 A2989 RMK A01 T00791018  RH  050%=      5-min Rain = 0
KPD2 180928Z 21005KT 08/M02 A2989 RMK A01 T00781019  RH  050%=      5-min Rain = 0
KPD2 180929Z 18005KT 08/M02 A2988 RMK A01 T00801018  RH  050%=      5-min Rain = 0
KPD2 180930Z 18004KT 08/M02 A2988 RMK A01 T00821019  RH  049%=      5-min Rain = 0
KPD2 180931Z 17008G14KT 08/M02 A2988 RMK A01 T00831019  RH  049%=      5-min Rain = 0
KPD2 180932Z 19011KT 08/M02 A2988 RMK A01 T00841019  RH  048%=      5-min Rain = 0
KPD2 180933Z 20006KT 09/M02 A2988 RMK A01 T00861019  RH  048%=      5-min Rain = 0
KPD2 180934Z 21003KT 09/M02 A2988 RMK A01 T00871019  RH  047%=      5-min Rain = 0
KPD2 180935Z 19002KT 09/M02 A2988 RMK A01 T00861019  RH  047%=      5-min Rain = 0
KPD2 180936Z 20006KT 09/M02 A2988 RMK A01 T00861019  RH  048%=      5-min Rain = 0
KPD2 180937Z 21004KT 09/M02 A2988 RMK A01 T00861020  RH  047%=      5-min Rain = 0
KPD2 180938Z 24001KT 09/M02 A2988 RMK A01 T00861020  RH  047%=      5-min Rain = 0
KPD2 180939Z 31003KT 09/M02 A2988 RMK A01 T00871020  RH  047%=      5-min Rain = 0
KPD2 180940Z 28002KT 09/M02 A2988 RMK A01 T00861020  RH  047%=      5-min Rain = 0
KPD2 180941Z 14002KT 09/M02 A2988 RMK A01 T00851021  RH  047%=      5-min Rain = 0
KPD2 180942Z 35003KT 08/M02 A2988 RMK A01 T00841021  RH  048%=      5-min Rain = 0
KPD2 180943Z 22004KT 08/M02 A2988 RMK A01 T00841021  RH  048%=      5-min Rain = 0
KPD2 180944Z 27002KT 09/M02 A2988 RMK A01 T00861020  RH  047%=      5-min Rain = 0
KPD2 180945Z 23004KT 09/M02 A2987 RMK A01 T00861020  RH  047%=      5-min Rain = 0
KPD2 180946Z 24004KT 09/M02 A2987 RMK A01 T00851020  RH  047%=      5-min Rain = 0
KPD2 180947Z 24003KT 08/M02 A2987 RMK A01 T00841020  RH  048%=      5-min Rain = 0
KPD2 180948Z 22000KT 08/M02 A2987 RMK A01 T00841020  RH  048%=      5-min Rain = 0
KPD2 180949Z 24003KT 08/M02 A2987 RMK A01 T00831021  RH  048%=      5-min Rain = 0
KPD2 180950Z 09001KT 08/M02 A2987 RMK A01 T00841020  RH  048%=      5-min Rain = 0
KPD2 180951Z 09001KT 08/M02 A2987 RMK A01 T00831021  RH  048%=      5-min Rain = 0
KPD2 180952Z 10003KT 08/M02 A2987 RMK A01 T00841021  RH  047%=      5-min Rain = 0
KPD2 180953Z 18003KT 08/M02 A2987 RMK A01 T00841021  RH  047%=      5-min Rain = 0
KPD2 180954Z 22003KT 08/M02 A2986 RMK A01 T00841021  RH  047%=      5-min Rain = 0
KPD2 180955Z 17006KT 08/M02 A2986 RMK A01 T00841022  RH  047%=      5-min Rain = 0
KPD2 180956Z 19006KT 09/M02 A2986 RMK A01 T00851022  RH  047%=      5-min Rain = 0
KPD2 180957Z 20005KT 09/M02 A2986 RMK A01 T00851022  RH  047%=      5-min Rain = 0
KPD2 180958Z 18003KT 09/M02 A2986 RMK A01 T00851022  RH  047%=      5-min Rain = 0
KPD2 180959Z 19006G11KT 09/M02 A2986 RMK A01 T00851022  RH  047%=      5-min Rain = 0
KPD2 181000Z 20004KT 09/M02 A2986 RMK A01 T00861023  RH  046%=      5-min Rain = 0
KPD2 181001Z 17003KT 09/M02 A2986 RMK A01 T00861023  RH  046%=      5-min Rain = 0
KPD2 181002Z 19002KT 09/M02 A2986 RMK A01 T00871023  RH  046%=      5-min Rain = 0
KPD2 181003Z 20003KT 09/M02 A2986 RMK A01 T00881023  RH  046%=      5-min Rain = 0
KPD2 181004Z 19004KT 09/M02 A2986 RMK A01 T00881023  RH  046%=      5-min Rain = 0
KPD2 181005Z 20004KT 09/M02 A2986 RMK A01 T00871024  RH  046%=      5-min Rain = 0
KPD2 181006Z 11001KT 09/M02 A2985 RMK A01 T00871024  RH  046%=      5-min Rain = 0
KPD2 181007Z 11001KT 09/M02 A2986 RMK A01 T00871023  RH  046%=      5-min Rain = 0
KPD2 181008Z 08002KT 09/M02 A2985 RMK A01 T00861024  RH  046%=      5-min Rain = 0
KPD2 181009Z 32003KT 09/M02 A2986 RMK A01 T00861024  RH  046%=      5-min Rain = 0
KPD2 181010Z 24003KT 09/M02 A2986 RMK A01 T00861024  RH  046%=      5-min Rain = 0
KPD2 181011Z 21004KT 09/M02 A2986 RMK A01 T00861024  RH  046%=      5-min Rain = 0
KPD2 181012Z 21004KT 09/M03 A2985 RMK A01 T00851026  RH  046%=      5-min Rain = 0
KPD2 181013Z 21006KT 09/M03 A2985 RMK A01 T00861026  RH  045%=      5-min Rain = 0
KPD2 181014Z 22005KT 09/M03 A2985 RMK A01 T00871026  RH  045%=      5-min Rain = 0
KPD2 181015Z 22006KT 09/M03 A2985 RMK A01 T00871026  RH  045%=      5-min Rain = 0
KPD2 181016Z 23004KT 09/M03 A2985 RMK A01 T00871026  RH  045%=      5-min Rain = 0
KPD2 181017Z 33001KT 09/M03 A2984 RMK A01 T00861025  RH  046%=      5-min Rain = 0
KPD2 181018Z 33002KT 08/M02 A2984 RMK A01 T00831024  RH  047%=      5-min Rain = 0
KPD2 181019Z 35000KT 08/M02 A2984 RMK A01 T00801024  RH  048%=      5-min Rain = 0
KPD2 181020Z 12003KT 08/M02 A2984 RMK A01 T00781024  RH  048%=      5-min Rain = 0
KPD2 181021Z 21003KT 08/M03 A2984 RMK A01 T00781025  RH  048%=      5-min Rain = 0
KPD2 181022Z 24002KT 08/M03 A2984 RMK A01 T00781026  RH  048%=      5-min Rain = 0
KPD2 181023Z 19002KT 08/M03 A2984 RMK A01 T00781025  RH  048%=      5-min Rain = 0
KPD2 181024Z 20007KT 08/M03 A2984 RMK A01 T00791026  RH  048%=      5-min Rain = 0
KPD2 181025Z 20002KT 08/M03 A2984 RMK A01 T00821026  RH  047%=      5-min Rain = 0
KPD2 181026Z 23002KT 08/M03 A2984 RMK A01 T00831025  RH  047%=      5-min Rain = 0
KPD2 181027Z 26001KT 08/M02 A2984 RMK A01 T00811024  RH  047%=      5-min Rain = 0
KPD2 181028Z 17001KT 08/M02 A2984 RMK A01 T00801024  RH  048%=      5-min Rain = 0
KPD2 181029Z 20002KT 08/M02 A2984 RMK A01 T00781024  RH  049%=      5-min Rain = 0
KPD2 181030Z 24000KT 08/M02 A2984 RMK A01 T00751024  RH  049%=      5-min Rain = 0
KPD2 181031Z 25001KT 07/M02 A2984 RMK A01 T00731024  RH  050%=      5-min Rain = 0
KPD2 181032Z 25000KT 07/M03 A2984 RMK A01 T00711025  RH  050%=      5-min Rain = 0
KPD2 181033Z 25000KT 07/M03 A2984 RMK A01 T00701025  RH  051%=      5-min Rain = 0
KPD2 181034Z 02003KT 07/M03 A2984 RMK A01 T00681025  RH  051%=      5-min Rain = 0
KPD2 181035Z 03004KT 07/M03 A2983 RMK A01 T00671025  RH  052%=      5-min Rain = 0
KPD2 181036Z 03002KT 07/M03 A2983 RMK A01 T00671025  RH  052%=      5-min Rain = 0
KPD2 181037Z 08001KT 07/M03 A2983 RMK A01 T00671027  RH  051%=      5-min Rain = 0
KPD2 181038Z 11003KT 07/M03 A2983 RMK A01 T00681027  RH  051%=      5-min Rain = 0
KPD2 181039Z 11003KT 07/M03 A2983 RMK A01 T00701026  RH  050%=      5-min Rain = 0
KPD2 181040Z 10002KT 07/M03 A2983 RMK A01 T00701026  RH  050%=      5-min Rain = 0
KPD2 181041Z 10003KT 07/M03 A2982 RMK A01 T00701026  RH  050%=      5-min Rain = 0
KPD2 181042Z 10003KT 07/M03 A2982 RMK A01 T00701027  RH  050%=      5-min Rain = 0
KPD2 181043Z 10002KT 07/M03 A2982 RMK A01 T00701028  RH  050%=      5-min Rain = 0
KPD2 181044Z 10004KT 07/M03 A2982 RMK A01 T00701028  RH  050%=      5-min Rain = 0
KPD2 181045Z 09007KT 07/M03 A2982 RMK A01 T00701029  RH  049%=      5-min Rain = 0
KPD2 181046Z 10005KT 07/M03 A2982 RMK A01 T00721030  RH  048%=      5-min Rain = 0
KPD2 181047Z 10006KT 07/M03 A2982 RMK A01 T00721030  RH  048%=      5-min Rain = 0
KPD2 181048Z 11006KT 08/M03 A2982 RMK A01 T00761030  RH  047%=      5-min Rain = 0
KPD2 181049Z 12005KT 08/M03 A2982 RMK A01 T00811029  RH  046%=      5-min Rain = 0
KPD2 181050Z 10004KT 09/M03 A2982 RMK A01 T00851029  RH  044%=      5-min Rain = 0
KPD2 181051Z 11002KT 09/M03 A2981 RMK A01 T00871029  RH  044%=      5-min Rain = 0
KPD2 181052Z 18002KT 09/M03 A2981 RMK A01 T00891030  RH  043%=      5-min Rain = 0
KPD2 181053Z 22002KT 09/M03 A2982 RMK A01 T00891030  RH  043%=      5-min Rain = 0
KPD2 181054Z 24002KT 09/M03 A2981 RMK A01 T00891030  RH  043%=      5-min Rain = 0
KPD2 181055Z 25002KT 09/M03 A2981 RMK A01 T00891031  RH  043%=      5-min Rain = 0
KPD2 181056Z 15003KT 09/M03 A2981 RMK A01 T00901031  RH  042%=      5-min Rain = 0
KPD2 181057Z 20002KT 09/M03 A2981 RMK A01 T00921030  RH  042%=      5-min Rain = 0
KPD2 181058Z 25003KT 09/M03 A2981 RMK A01 T00921030  RH  042%=      5-min Rain = 0
KPD2 181059Z 23007KT 09/M03 A2981 RMK A01 T00941031  RH  041%=      5-min Rain = 0
KPD2 181100Z 28006KT 10/M03 A2981 RMK A01 T00951030  RH  041%=      5-min Rain = 0
KPD2 181101Z 27006G11KT 10/M03 A2981 RMK A01 T00951031  RH  041%=      5-min Rain = 0
KPD2 181102Z 28004KT 10/M03 A2981 RMK A01 T00961031  RH  041%=      5-min Rain = 0
KPD2 181103Z 27002KT 10/M03 A298 RMK A01 T00961030  RH  041%=      5-min Rain = 0
KPD2 181104Z 22003KT 10/M03 A298 RMK A01 T00951030  RH  041%=      5-min Rain = 0
KPD2 181105Z 24007KT 09/M03 A298 RMK A01 T00941030  RH  042%=      5-min Rain = 0
KPD2 181106Z 27005KT 10/M03 A298 RMK A01 T00961028  RH  042%=      5-min Rain = 0
KPD2 181107Z 31005KT 10/M03 A298 RMK A01 T00971029  RH  041%=      5-min Rain = 0
KPD2 181108Z 31005KT 10/M03 A298 RMK A01 T00961029  RH  041%=      5-min Rain = 0
KPD2 181109Z 31003KT 09/M03 A298 RMK A01 T00941029  RH  042%=      5-min Rain = 0
KPD2 181110Z 25009KT 09/M03 A298 RMK A01 T00931029  RH  042%=      5-min Rain = 0
KPD2 181111Z 32006KT 10/M03 A298 RMK A01 T00951028  RH  042%=      5-min Rain = 0
KPD2 181112Z 31004KT 10/M03 A298 RMK A01 T00951029  RH  041%=      5-min Rain = 0
KPD2 181113Z 23003KT 09/M03 A298 RMK A01 T00941029  RH  042%=      5-min Rain = 0
KPD2 181114Z 21004KT 10/M03 A298 RMK A01 T00951028  RH  042%=      5-min Rain = 0
KPD2 181115Z 18001KT 10/M03 A2979 RMK A01 T00961028  RH  042%=      5-min Rain = 0
KPD2 181116Z 23000KT 10/M03 A298 RMK A01 T00971028  RH  041%=      5-min Rain = 0
KPD2 181117Z 07001KT 10/M03 A2979 RMK A01 T00981028  RH  041%=      5-min Rain = 0
KPD2 181118Z 24003KT 10/M03 A2979 RMK A01 T00981028  RH  041%=      5-min Rain = 0
KPD2 181119Z 27006KT 10/M03 A2979 RMK A01 T00981028  RH  041%=      5-min Rain = 0
KPD2 181120Z 25005KT 10/M03 A298 RMK A01 T00981027  RH  041%=      5-min Rain = 0
KPD2 181121Z 24006KT 10/M03 A298 RMK A01 T00981027  RH  042%=      5-min Rain = 0
KPD2 181122Z 30001KT 10/M03 A2979 RMK A01 T00981027  RH  042%=      5-min Rain = 0
KPD2 181123Z 01005KT 10/M03 A2979 RMK A01 T00981026  RH  042%=      5-min Rain = 0
KPD2 181124Z 35003KT 10/M03 A2979 RMK A01 T00981027  RH  041%=      5-min Rain = 0
KPD2 181125Z 02006KT 10/M03 A2979 RMK A01 T00971027  RH  042%=      5-min Rain = 0
KPD2 181126Z 31003KT 10/M03 A2979 RMK A01 T00961027  RH  042%=      5-min Rain = 0
KPD2 181127Z 00003KT 10/M03 A2979 RMK A01 T00961027  RH  042%=      5-min Rain = 0
KPD2 181128Z 30003KT 10/M03 A2978 RMK A01 T00971027  RH  042%=      5-min Rain = 0
KPD2 181129Z 27001KT 10/M03 A2978 RMK A01 T00971027  RH  042%=      5-min Rain = 0
KPD2 181130Z 28004KT 10/M03 A2978 RMK A01 T00981026  RH  042%=      5-min Rain = 0
KPD2 181131Z 23004KT 10/M03 A2978 RMK A01 T00991025  RH  042%=      5-min Rain = 0
KPD2 181132Z 26005KT 10/M03 A2978 RMK A01 T01001026  RH  041%=      5-min Rain = 0
KPD2 181133Z 25006KT 10/M03 A2978 RMK A01 T01011025  RH  041%=      5-min Rain = 0
KPD2 181134Z 29004KT 10/M03 A2978 RMK A01 T01021026  RH  041%=      5-min Rain = 0
KPD2 181135Z 28005G10KT 10/M03 A2978 RMK A01 T01021026  RH  041%=      5-min Rain = 0
KPD2 181136Z 23006G17KT 10/M03 A2978 RMK A01 T01031025  RH  041%=      5-min Rain = 0
KPD2 181137Z 25011G18KT 10/M03 A2978 RMK A01 T01041025  RH  040%=      5-min Rain = 0
KPD2 181138Z 28007KT 11/M03 A2978 RMK A01 T01051025  RH  040%=      5-min Rain = 0
KPD2 181139Z 27012KT 11/M03 A2978 RMK A01 T01051026  RH  040%=      5-min Rain = 0
KPD2 181140Z 31007G12KT 11/M03 A2978 RMK A01 T01051026  RH  040%=      5-min Rain = 0
KPD2 181141Z 24009G16KT 11/M03 A2978 RMK A01 T01061026  RH  040%=      5-min Rain = 0
KPD2 181142Z 26008G13KT 11/M03 A2978 RMK A01 T01071026  RH  039%=      5-min Rain = 0
KPD2 181143Z 25005KT 11/M03 A2978 RMK A01 T01081025  RH  039%=      5-min Rain = 0
KPD2 181144Z 26006KT 11/M03 A2978 RMK A01 T01081025  RH  039%=      5-min Rain = 0
KPD2 181145Z 29004G9KT 11/M03 A2978 RMK A01 T01081026  RH  039%=      5-min Rain = 0
KPD2 181146Z 23008KT 11/M03 A2978 RMK A01 T01071026  RH  039%=      5-min Rain = 0
KPD2 181147Z 26008G13KT 11/M03 A2978 RMK A01 T01071026  RH  039%=      5-min Rain = 0
KPD2 181148Z 24007G13KT 11/M03 A2977 RMK A01 T01071026  RH  039%=      5-min Rain = 0
KPD2 181149Z 22009KT 11/M03 A2977 RMK A01 T01071027  RH  039%=      5-min Rain = 0
KPD2 181150Z 26006KT 11/M03 A2977 RMK A01 T01071026  RH  039%=      5-min Rain = 0
KPD2 181151Z 25010G17KT 11/M03 A2977 RMK A01 T01071026  RH  039%=      5-min Rain = 0
KPD2 181152Z 26009G17KT 11/M03 A2977 RMK A01 T01061026  RH  040%=      5-min Rain = 0
KPD2 181153Z 24008G15KT 11/M03 A2978 RMK A01 T01061026  RH  040%=      5-min Rain = 0
KPD2 181154Z 25010G17KT 11/M03 A2977 RMK A01 T01051025  RH  040%=      5-min Rain = 0
KPD2 181155Z 25013G19KT 11/M03 A2977 RMK A01 T01061025  RH  040%=      5-min Rain = 0
KPD2 181156Z 25007G14KT 11/M02 A2977 RMK A01 T01051024  RH  040%=      5-min Rain = 0
KPD2 181157Z 24009G17KT 11/M02 A2977 RMK A01 T01051024  RH  040%=      5-min Rain = 0
KPD2 181158Z 25011G16KT 11/M02 A2977 RMK A01 T01051024  RH  040%=      5-min Rain = 0
KPD2 181159Z 26009G15KT 11/M02 A2977 RMK A01 T01051024  RH  040%=      5-min Rain = 0
KPD2 181200Z 25012G17KT 11/M02 A2977 RMK A01 T01051023  RH  041%=      5-min Rain = 0
KPD2 181201Z 23009KT 11/M02 A2977 RMK A01 T01051023  RH  041%=      5-min Rain = 0
KPD2 181202Z 25012G19KT 11/M02 A2977 RMK A01 T01051023  RH  041%=      5-min Rain = 0
KPD2 181203Z 24008G14KT 11/M02 A2977 RMK A01 T01051023  RH  041%=      5-min Rain = 0
KPD2 181204Z 23011KT 11/M02 A2977 RMK A01 T01051023  RH  041%=      5-min Rain = 0
KPD2 181205Z 23009G14KT 11/M02 A2977 RMK A01 T01051023  RH  041%=      5-min Rain = 0
KPD2 181206Z 23006G14KT 11/M02 A2977 RMK A01 T01051023  RH  041%=      5-min Rain = 0
KPD2 181207Z 23007G12KT 11/M02 A2977 RMK A01 T01051023  RH  041%=      5-min Rain = 0
KPD2 181208Z 24009G16KT 11/M02 A2976 RMK A01 T01051023  RH  041%=      5-min Rain = 0
KPD2 181209Z 23005G13KT 11/M02 A2976 RMK A01 T01051022  RH  041%=      5-min Rain = 0
KPD2 181210Z 22011KT 11/M02 A2976 RMK A01 T01051022  RH  041%=      5-min Rain = 0
KPD2 181211Z 23007KT 11/M02 A2976 RMK A01 T01061022  RH  041%=      5-min Rain = 0
KPD2 181212Z 25010G16KT 11/M02 A2976 RMK A01 T01061022  RH  041%=      5-min Rain = 0
KPD2 181213Z 24010G17KT 11/M02 A2976 RMK A01 T01071022  RH  041%=      5-min Rain = 0
KPD2 181214Z 24011G16KT 11/M02 A2976 RMK A01 T01071022  RH  041%=      5-min Rain = 0
KPD2 181215Z 24008KT 11/M02 A2976 RMK A01 T01081021  RH  041%=      5-min Rain = 0
KPD2 181216Z 24012G17KT 11/M02 A2976 RMK A01 T01081021  RH  041%=      5-min Rain = 0
KPD2 181217Z 25006G13KT 11/M02 A2977 RMK A01 T01071021  RH  041%=      5-min Rain = 0
KPD2 181218Z 26010KT 11/M02 A2977 RMK A01 T01081021  RH  041%=      5-min Rain = 0
KPD2 181219Z 23006KT 11/M02 A2977 RMK A01 T01081020  RH  041%=      5-min Rain = 0
KPD2 181220Z 24010G17KT 11/M02 A2977 RMK A01 T01071020  RH  041%=      5-min Rain = 0
KPD2 181221Z 23012G18KT 11/M02 A2977 RMK A01 T01081020  RH  041%=      5-min Rain = 0
KPD2 181222Z 26008KT 11/M02 A2977 RMK A01 T01091020  RH  041%=      5-min Rain = 0
KPD2 181223Z 25012G17KT 11/M02 A2976 RMK A01 T01091020  RH  041%=      5-min Rain = 0
KPD2 181224Z 24008G13KT 11/M02 A2976 RMK A01 T01101020  RH  040%=      5-min Rain = 0
KPD2 181225Z 25012KT 11/M02 A2976 RMK A01 T01091020  RH  040%=      5-min Rain = 0
KPD2 181226Z 24010KT 11/M02 A2976 RMK A01 T01091020  RH  041%=      5-min Rain = 0
KPD2 181227Z 23004G9KT 11/M02 A2977 RMK A01 T01091019  RH  041%=      5-min Rain = 0
KPD2 181228Z 25007G13KT 11/M02 A2977 RMK A01 T01081020  RH  041%=      5-min Rain = 0
KPD2 181229Z 24010G19KT 11/M02 A2977 RMK A01 T01081019  RH  041%=      5-min Rain = 0
KPD2 181230Z 25006KT 11/M02 A2977 RMK A01 T01081019  RH  041%=      5-min Rain = 0
KPD2 181231Z 24009G19KT 11/M02 A2977 RMK A01 T01081019  RH  041%=      5-min Rain = 0
KPD2 181232Z 25006G11KT 11/M02 A2977 RMK A01 T01081019  RH  041%=      5-min Rain = 0
KPD2 181233Z 25010G17KT 11/M02 A2977 RMK A01 T01081018  RH  041%=      5-min Rain = 0
KPD2 181234Z 25005G14KT 11/M02 A2977 RMK A01 T01081018  RH  041%=      5-min Rain = 0
KPD2 181235Z 25008G16KT 11/M02 A2977 RMK A01 T01081018  RH  041%=      5-min Rain = 0
KPD2 181236Z 25013G21KT 11/M02 A2977 RMK A01 T01081018  RH  041%=      5-min Rain = 0
KPD2 181237Z 24009G19KT 11/M02 A2977 RMK A01 T01091017  RH  041%=      5-min Rain = 0
KPD2 181238Z 24011G21KT 11/M02 A2977 RMK A01 T01091018  RH  041%=      5-min Rain = 0
KPD2 181239Z 25010G19KT 11/M02 A2977 RMK A01 T01101018  RH  041%=      5-min Rain = 0
KPD2 181240Z 25013G22KT 11/M02 A2977 RMK A01 T01091018  RH  041%=      5-min Rain = 0
KPD2 181241Z 25005KT 11/M02 A2977 RMK A01 T01091018  RH  041%=      5-min Rain = 0
KPD2 181242Z 24009KT 11/M02 A2977 RMK A01 T01101018  RH  041%=      5-min Rain = 0
KPD2 181243Z 22010G19KT 11/M02 A2977 RMK A01 T01091018  RH  041%=      5-min Rain = 0
KPD2 181244Z 23014G22KT 11/M02 A2976 RMK A01 T01091018  RH  041%=      5-min Rain = 0
KPD2 181245Z 23010G17KT 11/M02 A2976 RMK A01 T01091018  RH  041%=      5-min Rain = 0
KPD2 181246Z 27006G11KT 11/M02 A2976 RMK A01 T01091018  RH  041%=      5-min Rain = 0
KPD2 181247Z 25009G16KT 11/M02 A2976 RMK A01 T01081018  RH  041%=      5-min Rain = 0
KPD2 181248Z 25007G14KT 11/M02 A2976 RMK A01 T01081018  RH  042%=      5-min Rain = 0
KPD2 181249Z 25008G14KT 11/M02 A2976 RMK A01 T01081018  RH  042%=      5-min Rain = 0
KPD2 181250Z 24009G14KT 11/M02 A2976 RMK A01 T01081018  RH  042%=      5-min Rain = 0
KPD2 181251Z 24008KT 11/M02 A2976 RMK A01 T01071018  RH  042%=      5-min Rain = 0
KPD2 181252Z 26004KT 11/M02 A2976 RMK A01 T01071018  RH  042%=      5-min Rain = 0
KPD2 181253Z 25010G23KT 11/M02 A2976 RMK A01 T01061018  RH  042%=      5-min Rain = 0
KPD2 181254Z 25012G17KT 11/M02 A2976 RMK A01 T01051019  RH  042%=      5-min Rain = 0
KPD2 181255Z 25008G13KT 11/M02 A2976 RMK A01 T01051019  RH  042%=      5-min Rain = 0
KPD2 181256Z 25011KT 10/M02 A2976 RMK A01 T01041019  RH  042%=      5-min Rain = 0
KPD2 181257Z 24014G22KT 10/M02 A2976 RMK A01 T01041019  RH  042%=      5-min Rain = 0
KPD2 181258Z 25011G19KT 10/M02 A2976 RMK A01 T01041019  RH  042%=      5-min Rain = 0
KPD2 181259Z 25007G14KT 11/M02 A2976 RMK A01 T01051018  RH  042%=      5-min Rain = 0
KPD2 181300Z 25009G14KT 10/M02 A2976 RMK A01 T01041019  RH  042%=      5-min Rain = 0
KPD2 181301Z 26007G12KT 10/M02 A2976 RMK A01 T01041019  RH  042%=      5-min Rain = 0
KPD2 181302Z 25011G16KT 10/M02 A2976 RMK A01 T01031019  RH  042%=      5-min Rain = 0
KPD2 181303Z 26010G17KT 10/M02 A2976 RMK A01 T01041018  RH  042%=      5-min Rain = 0
KPD2 181304Z 26006G11KT 10/M02 A2976 RMK A01 T01031019  RH  042%=      5-min Rain = 0
KPD2 181305Z 24009KT 10/M02 A2976 RMK A01 T01031019  RH  043%=      5-min Rain = 0
KPD2 181306Z 26007KT 10/M02 A2976 RMK A01 T01031018  RH  043%=      5-min Rain = 0
KPD2 181307Z 25009G14KT 10/M02 A2976 RMK A01 T01031018  RH  043%=      5-min Rain = 0
KPD2 181308Z 25007KT 10/M02 A2976 RMK A01 T01021019  RH  043%=      5-min Rain = 0
KPD2 181309Z 27007KT 10/M02 A2976 RMK A01 T01021018  RH  043%=      5-min Rain = 0
KPD2 181310Z 27006KT 10/M02 A2976 RMK A01 T01021018  RH  043%=      5-min Rain = 0
KPD2 181311Z 25008G15KT 10/M02 A2976 RMK A01 T01021018  RH  043%=      5-min Rain = 0
KPD2 181312Z 25008KT 10/M02 A2976 RMK A01 T01021018  RH  043%=      5-min Rain = 0
KPD2 181313Z 25007G13KT 10/M02 A2976 RMK A01 T01021018  RH  043%=      5-min Rain = 0
KPD2 181314Z 26011KT 10/M02 A2976 RMK A01 T01011018  RH  043%=      5-min Rain = 0
KPD2 181315Z 24008G18KT 10/M02 A2976 RMK A01 T01011018  RH  043%=      5-min Rain = 0
KPD2 181316Z 25014G19KT 10/M02 A2976 RMK A01 T01011018  RH  043%=      5-min Rain = 0
KPD2 181317Z 23010G18KT 10/M02 A2976 RMK A01 T01021018  RH  043%=      5-min Rain = 0
KPD2 181318Z 24010KT 10/M02 A2976 RMK A01 T01031018  RH  043%=      5-min Rain = 0
KPD2 181319Z 24010G15KT 10/M02 A2976 RMK A01 T01031018  RH  043%=      5-min Rain = 0
KPD2 181320Z 25010KT 10/M02 A2976 RMK A01 T01031018  RH  043%=      5-min Rain = 0
KPD2 181321Z 24009G15KT 10/M02 A2976 RMK A01 T01041018  RH  043%=      5-min Rain = 0
KPD2 181322Z 24007KT 10/M02 A2976 RMK A01 T01041018  RH  042%=      5-min Rain = 0
KPD2 181323Z 25011KT 10/M02 A2976 RMK A01 T01041018  RH  042%=      5-min Rain = 0
KPD2 181324Z 24011KT 11/M02 A2976 RMK A01 T01051018  RH  042%=      5-min Rain = 0
KPD2 181325Z 24012KT 11/M02 A2976 RMK A01 T01061018  RH  042%=      5-min Rain = 0
KPD2 181326Z 24009KT 11/M02 A2976 RMK A01 T01061018  RH  042%=      5-min Rain = 0
KPD2 181327Z 26008KT 11/M02 A2976 RMK A01 T01071018  RH  042%=      5-min Rain = 0
KPD2 181328Z 26006G13KT 11/M02 A2976 RMK A01 T01071018  RH  042%=      5-min Rain = 0
KPD2 181329Z 25014KT 11/M02 A2976 RMK A01 T01071018  RH  042%=      5-min Rain = 0
KPD2 181330Z 24011KT 11/M02 A2975 RMK A01 T01081018  RH  041%=      5-min Rain = 0
KPD2 181331Z 26007G12KT 11/M02 A2975 RMK A01 T01081018  RH  041%=      5-min Rain = 0
KPD2 181332Z 25008KT 11/M02 A2975 RMK A01 T01081018  RH  041%=      5-min Rain = 0
KPD2 181333Z 24008G13KT 11/M02 A2975 RMK A01 T01091018  RH  041%=      5-min Rain = 0
KPD2 181334Z 25008G15KT 11/M02 A2975 RMK A01 T01091018  RH  041%=      5-min Rain = 0
KPD2 181335Z 24007G12KT 11/M02 A2975 RMK A01 T01081018  RH  041%=      5-min Rain = 0
KPD2 181336Z 25011G19KT 11/M02 A2975 RMK A01 T01091018  RH  041%=      5-min Rain = 0
KPD2 181337Z 25009G14KT 11/M02 A2975 RMK A01 T01101017  RH  041%=      5-min Rain = 0
KPD2 181338Z 25012G18KT 11/M02 A2975 RMK A01 T01111018  RH  041%=      5-min Rain = 0
KPD2 181339Z 24011G17KT 11/M02 A2975 RMK A01 T01121017  RH  040%=      5-min Rain = 0
KPD2 181340Z 24010G15KT 11/M02 A2975 RMK A01 T01131018  RH  040%=      5-min Rain = 0
KPD2 181341Z 24008G13KT 11/M02 A2975 RMK A01 T01131018  RH  040%=      5-min Rain = 0
KPD2 181342Z 26008KT 11/M02 A2975 RMK A01 T01131018  RH  040%=      5-min Rain = 0
KPD2 181343Z 26006KT 11/M02 A2975 RMK A01 T01131018  RH  040%=      5-min Rain = 0
KPD2 181344Z 25008G16KT 11/M02 A2975 RMK A01 T01121018  RH  040%=      5-min Rain = 0
KPD2 181345Z 27004G9KT 11/M02 A2975 RMK A01 T01111018  RH  040%=      5-min Rain = 0
KPD2 181346Z 26007G13KT 11/M02 A2974 RMK A01 T01111018  RH  041%=      5-min Rain = 0
KPD2 181347Z 24007G12KT 11/M02 A2974 RMK A01 T01111018  RH  041%=      5-min Rain = 0
KPD2 181348Z 24014KT 11/M02 A2975 RMK A01 T01111018  RH  041%=      5-min Rain = 0
KPD2 181349Z 25010G15KT 11/M02 A2975 RMK A01 T01111018  RH  041%=      5-min Rain = 0
KPD2 181350Z 26011KT 11/M02 A2975 RMK A01 T01111018  RH  041%=      5-min Rain = 0
KPD2 181351Z 25008G13KT 11/M02 A2975 RMK A01 T01111018  RH  041%=      5-min Rain = 0
KPD2 181352Z 25010G15KT 11/M02 A2975 RMK A01 T01111017  RH  041%=      5-min Rain = 0
KPD2 181353Z 25008KT 11/M02 A2975 RMK A01 T01101018  RH  041%=      5-min Rain = 0
KPD2 181354Z 26007KT 11/M02 A2975 RMK A01 T01091018  RH  041%=      5-min Rain = 0
KPD2 181355Z 25011KT 11/M02 A2975 RMK A01 T01091018  RH  041%=      5-min Rain = 0
KPD2 181356Z 29004G9KT 11/M02 A2975 RMK A01 T01091017  RH  041%=      5-min Rain = 0
KPD2 181357Z 28004KT 11/M02 A2975 RMK A01 T01081017  RH  042%=      5-min Rain = 0
KPD2 181358Z 28007KT 11/M02 A2975 RMK A01 T01071017  RH  042%=      5-min Rain = 0
KPD2 181359Z 30009KT 11/M02 A2975 RMK A01 T01071017  RH  042%=      5-min Rain = 0
KPD2 181400Z 28008KT 11/M02 A2975 RMK A01 T01061017  RH  042%=      5-min Rain = 0
KPD2 181401Z 30007KT 11/M02 A2975 RMK A01 T01051017  RH  043%=      5-min Rain = 0
KPD2 181402Z 28008KT 10/M02 A2975 RMK A01 T01041017  RH  043%=      5-min Rain = 0
KPD2 181403Z 29006KT 10/M02 A2975 RMK A01 T01041017  RH  043%=      5-min Rain = 0
KPD2 181404Z 30008KT 10/M02 A2975 RMK A01 T01041017  RH  043%=      5-min Rain = 0
KPD2 181405Z 32006KT 10/M02 A2975 RMK A01 T01041016  RH  043%=      5-min Rain = 0
KPD2 181406Z 30008KT 10/M02 A2975 RMK A01 T01031017  RH  043%=      5-min Rain = 0
KPD2 181407Z 29005KT 10/M02 A2975 RMK A01 T01031016  RH  043%=      5-min Rain = 0
KPD2 181408Z 31006KT 10/M02 A2975 RMK A01 T01031016  RH  043%=      5-min Rain = 0
KPD2 181409Z 32006KT 10/M02 A2975 RMK A01 T01021016  RH  044%=      5-min Rain = 0
KPD2 181410Z 32006KT 10/M02 A2975 RMK A01 T01011016  RH  044%=      5-min Rain = 0
KPD2 181411Z 32007KT 10/M02 A2975 RMK A01 T01011016  RH  044%=      5-min Rain = 0
KPD2 181412Z 30005KT 10/M02 A2975 RMK A01 T01011015  RH  044%=      5-min Rain = 0
KPD2 181413Z 34008KT 10/M02 A2975 RMK A01 T01011015  RH  044%=      5-min Rain = 0
KPD2 181414Z 32007KT 10/M02 A2975 RMK A01 T01011015  RH  044%=      5-min Rain = 0
KPD2 181415Z 31007KT 10/M01 A2975 RMK A01 T01011014  RH  044%=      5-min Rain = 0
KPD2 181416Z 32007KT 10/M01 A2974 RMK A01 T01021014  RH  044%=      5-min Rain = 0
KPD2 181417Z 32007KT 10/M01 A2974 RMK A01 T01021014  RH  044%=      5-min Rain = 0
KPD2 181418Z 29008G14KT 10/M01 A2975 RMK A01 T01031014  RH  044%=      5-min Rain = 0
KPD2 181419Z 30008G13KT 11/M01 A2974 RMK A01 T01051013  RH  044%=      5-min Rain = 0
KPD2 181420Z 28012G19KT 11/M01 A2974 RMK A01 T01071012  RH  044%=      5-min Rain = 0
KPD2 181421Z 31007KT 11/M01 A2974 RMK A01 T01111010  RH  043%=      5-min Rain = 0
KPD2 181422Z 28009KT 11/M01 A2974 RMK A01 T01111011  RH  043%=      5-min Rain = 0
KPD2 181423Z 29009G15KT 11/M01 A2974 RMK A01 T01141009  RH  043%=      5-min Rain = 0
KPD2 181424Z 29008G13KT 12/M01 A2974 RMK A01 T01161009  RH  042%=      5-min Rain = 0
KPD2 181425Z 29005KT 12/M01 A2974 RMK A01 T01171009  RH  042%=      5-min Rain = 0
KPD2 181426Z 31006KT 12/M01 A2975 RMK A01 T01171009  RH  042%=      5-min Rain = 0
KPD2 181427Z 31006KT 12/M01 A2975 RMK A01 T01171009  RH  042%=      5-min Rain = 0
KPD2 181428Z 31007KT 12/M01 A2975 RMK A01 T01171008  RH  042%=      5-min Rain = 0
KPD2 181429Z 31006KT 12/M01 A2975 RMK A01 T01181007  RH  042%=      5-min Rain = 0
KPD2 181430Z 28008KT 12/M01 A2975 RMK A01 T01191007  RH  042%=      5-min Rain = 0
KPD2 181431Z 29008G16KT 12/M01 A2975 RMK A01 T01211006  RH  042%=      5-min Rain = 0
KPD2 181432Z 28009KT 12/M01 A2975 RMK A01 T01231006  RH  041%=      5-min Rain = 0
KPD2 181433Z 28010KT 13/M01 A2975 RMK A01 T01251005  RH  041%=      5-min Rain = 0
KPD2 181434Z 30008G14KT 13/M01 A2975 RMK A01 T01271005  RH  040%=      5-min Rain = 0
KPD2 181435Z 27012G21KT 13/M01 A2975 RMK A01 T01271005  RH  040%=      5-min Rain = 0
KPD2 181436Z 28019G25KT 13/M00 A2974 RMK A01 T01291004  RH  040%=      5-min Rain = 0
KPD2 181437Z 29015G21KT 13/M00 A2974 RMK A01 T01321004  RH  039%=      5-min Rain = 0
KPD2 181438Z 29011KT 13/M00 A2974 RMK A01 T01331004  RH  039%=      5-min Rain = 0
KPD2 181439Z 28012G17KT 13/M01 A2974 RMK A01 T01331005  RH  039%=      5-min Rain = 0
KPD2 181440Z 29012KT 13/M01 A2974 RMK A01 T01331005  RH  039%=      5-min Rain = 0
KPD2 181441Z 31007KT 13/M01 A2974 RMK A01 T01341005  RH  038%=      5-min Rain = 0
KPD2 181442Z 28010G17KT 13/M00 A2974 RMK A01 T01341004  RH  039%=      5-min Rain = 0
KPD2 181443Z 28011KT 13/M00 A2974 RMK A01 T01341004  RH  039%=      5-min Rain = 0
KPD2 181444Z 28012G17KT 13/M00 A2974 RMK A01 T01341004  RH  039%=      5-min Rain = 0
KPD2 181445Z 29011KT 14/M00 A2974 RMK A01 T01351004  RH  038%=      5-min Rain = 0
KPD2 181446Z 28012G21KT 14/M00 A2974 RMK A01 T01351004  RH  039%=      5-min Rain = 0
KPD2 181447Z 29011G17KT 14/M00 A2974 RMK A01 T01361003  RH  039%=      5-min Rain = 0
KPD2 181448Z 27015G20KT 14/M00 A2974 RMK A01 T01361002  RH  038%=      5-min Rain = 0
KPD2 181449Z 27013G19KT 14/M00 A2974 RMK A01 T01371002  RH  038%=      5-min Rain = 0
KPD2 181450Z 29014G20KT 14/M00 A2973 RMK A01 T01371002  RH  038%=      5-min Rain = 0
KPD2 181451Z 30008G14KT 14/M00 A2974 RMK A01 T01371002  RH  038%=      5-min Rain = 0
KPD2 181452Z 29011G17KT 14/M00 A2974 RMK A01 T01371002  RH  038%=      5-min Rain = 0
KPD2 181453Z 28009KT 14/M00 A2974 RMK A01 T01371002  RH  038%=      5-min Rain = 0
KPD2 181454Z 29010G15KT 14/M00 A2974 RMK A01 T01371002  RH  038%=      5-min Rain = 0
KPD2 181455Z 29007KT 14/M00 A2974 RMK A01 T01381001  RH  039%=      5-min Rain = 0
KPD2 181456Z 29009G14KT 14/00 A2974 RMK A01 T013700-0  RH  039%=      5-min Rain = 0
KPD2 181457Z 29007G12KT 14/00 A2974 RMK A01 T013700-0  RH  039%=      5-min Rain = 0
KPD2 181458Z 29010KT 14/00 A2974 RMK A01 T01380000  RH  039%=      5-min Rain = 0
KPD2 181459Z 29009G15KT 14/00 A2974 RMK A01 T013800-0  RH  039%=      5-min Rain = 0
KPD2 181500Z 29012KT 14/00 A2974 RMK A01 T01380000  RH  039%=      5-min Rain = 0
KPD2 181501Z 30012G19KT 14/00 A2974 RMK A01 T01390000  RH  039%=      5-min Rain = 0
KPD2 181502Z 30006G11KT 14/00 A2974 RMK A01 T01400001  RH  039%=      5-min Rain = 0
KPD2 181503Z 29009G14KT 14/00 A2973 RMK A01 T01400001  RH  039%=      5-min Rain = 0
KPD2 181504Z 30008G17KT 14/00 A2973 RMK A01 T01400001  RH  039%=      5-min Rain = 0
KPD2 181505Z 29011G18KT 14/00 A2973 RMK A01 T01400002  RH  039%=      5-min Rain = 0
KPD2 181506Z 28013KT 14/00 A2973 RMK A01 T01400001  RH  039%=      5-min Rain = 0
KPD2 181507Z 28012G17KT 14/00 A2973 RMK A01 T01400001  RH  038%=      5-min Rain = 0
KPD2 181508Z 28013G19KT 14/00 A2973 RMK A01 T01400000  RH  038%=      5-min Rain = 0
KPD2 181509Z 29012G18KT 14/00 A2973 RMK A01 T01410000  RH  038%=      5-min Rain = 0
KPD2 181510Z 30011KT 14/00 A2974 RMK A01 T01400001  RH  038%=      5-min Rain = 0
KPD2 181511Z 29009KT 14/00 A2974 RMK A01 T01400001  RH  039%=      5-min Rain = 0
KPD2 181512Z 29009KT 14/00 A2974 RMK A01 T01400002  RH  039%=      5-min Rain = 0
KPD2 181513Z 27011G19KT 14/00 A2974 RMK A01 T01400002  RH  039%=      5-min Rain = 0
KPD2 181514Z 28012G17KT 14/00 A2973 RMK A01 T01400002  RH  039%=      5-min Rain = 0
KPD2 181515Z 29009KT 14/00 A2973 RMK A01 T01400002  RH  039%=      5-min Rain = 0
KPD2 181516Z 29011G16KT 14/00 A2973 RMK A01 T01390002  RH  039%=      5-min Rain = 0
KPD2 181517Z 27017KT 14/00 A2973 RMK A01 T01400002  RH  039%=      5-min Rain = 0
KPD2 181518Z 29013G19KT 14/00 A2973 RMK A01 T01400002  RH  039%=      5-min Rain = 0
KPD2 181519Z 27011G16KT 14/00 A2974 RMK A01 T01400002  RH  039%=      5-min Rain = 0
KPD2 181520Z 27014G22KT 14/00 A2974 RMK A01 T01400002  RH  039%=      5-min Rain = 0
KPD2 181521Z 28010G15KT 14/00 A2974 RMK A01 T01400002  RH  039%=      5-min Rain = 0
KPD2 181522Z 28015G22KT 14/00 A2974 RMK A01 T01400002  RH  039%=      5-min Rain = 0
KPD2 181523Z 28014KT 14/00 A2974 RMK A01 T01400002  RH  039%=      5-min Rain = 0
KPD2 181524Z 27018G25KT 14/00 A2974 RMK A01 T01390002  RH  039%=      5-min Rain = 0
KPD2 181525Z 28012G17KT 14/00 A2974 RMK A01 T01390002  RH  039%=      5-min Rain = 0
KPD2 181526Z 28011G17KT 14/00 A2974 RMK A01 T01390002  RH  039%=      5-min Rain = 0
KPD2 181527Z 26009KT 14/00 A2974 RMK A01 T01390003  RH  039%=      5-min Rain = 0
KPD2 181528Z 28011G19KT 14/00 A2974 RMK A01 T01390003  RH  039%=      5-min Rain = 0
KPD2 181529Z 27014G22KT 14/00 A2974 RMK A01 T01390003  RH  039%=      5-min Rain = 0
KPD2 181530Z 28011G17KT 14/00 A2974 RMK A01 T01390004  RH  039%=      5-min Rain = 0
KPD2 181531Z 28012G19KT 14/00 A2974 RMK A01 T01390004  RH  039%=      5-min Rain = 0
KPD2 181532Z 27009G14KT 14/00 A2974 RMK A01 T01400004  RH  039%=      5-min Rain = 0
KPD2 181533Z 28008KT 14/00 A2974 RMK A01 T01400004  RH  039%=      5-min Rain = 0
KPD2 181534Z 27008G13KT 14/01 A2974 RMK A01 T01400005  RH  039%=      5-min Rain = 0
KPD2 181535Z 28009KT 14/00 A2974 RMK A01 T01400004  RH  039%=      5-min Rain = 0
KPD2 181536Z 28009KT 14/00 A2974 RMK A01 T01400004  RH  039%=      5-min Rain = 0
KPD2 181537Z 28014G20KT 14/00 A2974 RMK A01 T01400004  RH  039%=      5-min Rain = 0
KPD2 181538Z 27010G16KT 14/00 A2974 RMK A01 T01410004  RH  039%=      5-min Rain = 0
KPD2 181539Z 27010G15KT 14/00 A2974 RMK A01 T01400004  RH  039%=      5-min Rain = 0
KPD2 181540Z 28013G21KT 14/00 A2973 RMK A01 T01400004  RH  039%=      5-min Rain = 0
KPD2 181541Z 28015G21KT 14/00 A2974 RMK A01 T01410004  RH  039%=      5-min Rain = 0
KPD2 181542Z 28017G24KT 14/00 A2974 RMK A01 T01410004  RH  039%=      5-min Rain = 0
KPD2 181543Z 28013G18KT 14/00 A2974 RMK A01 T01410004  RH  039%=      5-min Rain = 0
KPD2 181544Z 28010G18KT 14/00 A2974 RMK A01 T01410004  RH  039%=      5-min Rain = 0
KPD2 181545Z 27014G21KT 14/00 A2974 RMK A01 T01410004  RH  039%=      5-min Rain = 0
KPD2 181546Z 26016G26KT 14/00 A2974 RMK A01 T01410004  RH  039%=      5-min Rain = 0
KPD2 181547Z 27014G21KT 14/00 A2974 RMK A01 T01410004  RH  039%=      5-min Rain = 0
KPD2 181548Z 27013G20KT 14/00 A2974 RMK A01 T01420004  RH  039%=      5-min Rain = 0
KPD2 181549Z 28011KT 14/00 A2973 RMK A01 T01420004  RH  039%=      5-min Rain = 0
KPD2 181550Z 27014G23KT 14/01 A2973 RMK A01 T01430005  RH  039%=      5-min Rain = 0
KPD2 181551Z 28012G17KT 14/01 A2973 RMK A01 T01430006  RH  039%=      5-min Rain = 0
KPD2 181552Z 27015G24KT 14/01 A2973 RMK A01 T01440006  RH  039%=      5-min Rain = 0
KPD2 181553Z 27017G23KT 14/01 A2973 RMK A01 T01440007  RH  039%=      5-min Rain = 0
KPD2 181554Z 27013G18KT 15/01 A2974 RMK A01 T01450007  RH  039%=      5-min Rain = 0
KPD2 181555Z 28010G18KT 15/01 A2974 RMK A01 T01450008  RH  039%=      5-min Rain = 0
KPD2 181556Z 30008G15KT 15/01 A2974 RMK A01 T01460008  RH  039%=      5-min Rain = 0
KPD2 181557Z 29011KT 15/01 A2974 RMK A01 T01460009  RH  039%=      5-min Rain = 0
KPD2 181558Z 28009G15KT 15/01 A2974 RMK A01 T01460008  RH  039%=      5-min Rain = 0
KPD2 181559Z 26011KT 15/01 A2974 RMK A01 T01470009  RH  039%=      5-min Rain = 0
KPD2 181600Z 26018G23KT 15/01 A2973 RMK A01 T01470009  RH  039%=      5-min Rain = 0
KPD2 181601Z 27014G20KT 15/01 A2973 RMK A01 T01470009  RH  039%=      5-min Rain = 0
KPD2 181602Z 27011G18KT 15/01 A2973 RMK A01 T01480009  RH  039%=      5-min Rain = 0
KPD2 181603Z 27012G23KT 15/01 A2973 RMK A01 T01480009  RH  039%=      5-min Rain = 0
KPD2 181604Z 28013G18KT 15/01 A2973 RMK A01 T01480010  RH  039%=      5-min Rain = 0
KPD2 181605Z 28009G15KT 15/01 A2973 RMK A01 T01490010  RH  039%=      5-min Rain = 0
KPD2 181606Z 27016G21KT 15/01 A2973 RMK A01 T01500011  RH  039%=      5-min Rain = 0
KPD2 181607Z 27016G21KT 15/01 A2973 RMK A01 T01500010  RH  039%=      5-min Rain = 0
KPD2 181608Z 28015G22KT 15/01 A2973 RMK A01 T01500011  RH  039%=      5-min Rain = 0
KPD2 181609Z 28013G20KT 15/01 A2972 RMK A01 T01510011  RH  039%=      5-min Rain = 0
KPD2 181610Z 28012G18KT 15/01 A2972 RMK A01 T01520012  RH  039%=      5-min Rain = 0
KPD2 181611Z 29012G19KT 15/01 A2972 RMK A01 T01520012  RH  038%=      5-min Rain = 0
KPD2 181612Z 27012KT 15/01 A2972 RMK A01 T01530013  RH  038%=      5-min Rain = 0
KPD2 181613Z 29011KT 15/01 A2972 RMK A01 T01540013  RH  038%=      5-min Rain = 0
KPD2 181614Z 30016G24KT 16/01 A2972 RMK A01 T01560014  RH  038%=      5-min Rain = 0
KPD2 181615Z 29011G16KT 16/01 A2972 RMK A01 T01570014  RH  038%=      5-min Rain = 0
KPD2 181616Z 28011G18KT 16/01 A2972 RMK A01 T01570014  RH  038%=      5-min Rain = 0
KPD2 181617Z 28011G18KT 16/01 A2972 RMK A01 T01580014  RH  038%=      5-min Rain = 0
KPD2 181618Z 28011G17KT 16/01 A2972 RMK A01 T01590014  RH  038%=      5-min Rain = 0
KPD2 181619Z 29010G15KT 16/02 A2972 RMK A01 T01590015  RH  038%=      5-min Rain = 0
KPD2 181620Z 29011G17KT 16/02 A2972 RMK A01 T01590015  RH  037%=      5-min Rain = 0
KPD2 181621Z 28013G23KT 16/02 A2972 RMK A01 T01600015  RH  038%=      5-min Rain = 0
KPD2 181622Z 28018G25KT 16/02 A2972 RMK A01 T01600016  RH  038%=      5-min Rain = 0
KPD2 181623Z 28019G28KT 16/02 A2972 RMK A01 T01610016  RH  038%=      5-min Rain = 0
KPD2 181624Z 28012KT 16/02 A2972 RMK A01 T01600016  RH  038%=      5-min Rain = 0
KPD2 181625Z 29015G22KT 16/02 A2972 RMK A01 T01600017  RH  038%=      5-min Rain = 0
KPD2 181626Z 28015G21KT 16/02 A2972 RMK A01 T01610017  RH  038%=      5-min Rain = 0
KPD2 181627Z 27015G23KT 16/02 A2972 RMK A01 T01610016  RH  037%=      5-min Rain = 0
KPD2 181628Z 27017G22KT 16/02 A2972 RMK A01 T01610016  RH  037%=      5-min Rain = 0
KPD2 181629Z 28017G23KT 16/02 A2972 RMK A01 T01610016  RH  037%=      5-min Rain = 0
KPD2 181630Z 29011G21KT 16/02 A2972 RMK A01 T01610017  RH  038%=      5-min Rain = 0
KPD2 181631Z 29018G25KT 16/02 A2971 RMK A01 T01630017  RH  037%=      5-min Rain = 0
KPD2 181632Z 29013G19KT 16/02 A2971 RMK A01 T01620016  RH  037%=      5-min Rain = 0
KPD2 181633Z 28015G22KT 16/02 A2971 RMK A01 T01610016  RH  038%=      5-min Rain = 0
KPD2 181634Z 30010KT 16/02 A2971 RMK A01 T01600016  RH  038%=      5-min Rain = 0
KPD2 181635Z 30013G20KT 16/02 A2971 RMK A01 T01590017  RH  038%=      5-min Rain = 0
KPD2 181636Z 30011G17KT 16/02 A2971 RMK A01 T01600017  RH  038%=      5-min Rain = 0
KPD2 181637Z 31012G19KT 16/02 A2971 RMK A01 T01590017  RH  038%=      5-min Rain = 0
KPD2 181638Z 28011G18KT 16/02 A2971 RMK A01 T01600017  RH  038%=      5-min Rain = 0
KPD2 181639Z 29013G23KT 16/02 A2971 RMK A01 T01590017  RH  038%=      5-min Rain = 0
KPD2 181640Z 28013G21KT 16/02 A2971 RMK A01 T01590016  RH  038%=      5-min Rain = 0
KPD2 181641Z 29013G19KT 16/02 A2971 RMK A01 T01600017  RH  038%=      5-min Rain = 0
KPD2 181642Z 30012G17KT 16/02 A2971 RMK A01 T01590017  RH  038%=      5-min Rain = 0
KPD2 181643Z 31013G19KT 16/02 A2971 RMK A01 T01600017  RH  038%=      5-min Rain = 0
KPD2 181644Z 29013G20KT 16/02 A2971 RMK A01 T01600018  RH  038%=      5-min Rain = 0
KPD2 181645Z 27015G22KT 16/02 A2971 RMK A01 T01600017  RH  038%=      5-min Rain = 0
KPD2 181646Z 27015G21KT 16/02 A2971 RMK A01 T01600017  RH  038%=      5-min Rain = 0
KPD2 181647Z 28010KT 16/02 A2971 RMK A01 T01600017  RH  038%=      5-min Rain = 0
KPD2 181648Z 28011KT 16/02 A2971 RMK A01 T01610018  RH  038%=      5-min Rain = 0
KPD2 181649Z 29013KT 16/02 A2971 RMK A01 T01610018  RH  038%=      5-min Rain = 0
KPD2 181650Z 26012G17KT 16/02 A297 RMK A01 T01620018  RH  038%=      5-min Rain = 0
KPD2 181651Z 29012KT 16/02 A297 RMK A01 T01620019  RH  038%=      5-min Rain = 0
KPD2 181652Z 29008KT 16/02 A2971 RMK A01 T01630019  RH  038%=      5-min Rain = 0
KPD2 181653Z 29009G14KT 16/02 A2971 RMK A01 T01640021  RH  038%=      5-min Rain = 0
KPD2 181654Z 29012G17KT 17/02 A297 RMK A01 T01650021  RH  038%=      5-min Rain = 0
KPD2 181655Z 30012G18KT 17/02 A297 RMK A01 T01670022  RH  038%=      5-min Rain = 0
KPD2 181656Z 28015G24KT 17/02 A297 RMK A01 T01690022  RH  037%=      5-min Rain = 0
KPD2 181657Z 28015G24KT 17/02 A297 RMK A01 T01710023  RH  037%=      5-min Rain = 0
KPD2 181658Z 28014G20KT 17/02 A297 RMK A01 T01720023  RH  037%=      5-min Rain = 0
KPD2 181659Z 29008G14KT 17/02 A297 RMK A01 T01740024  RH  036%=      5-min Rain = 0
KPD2 181700Z 29013KT 18/03 A297 RMK A01 T01780025  RH  036%=      5-min Rain = 0
KPD2 181701Z 28017G26KT 18/02 A297 RMK A01 T01780024  RH  035%=      5-min Rain = 0
KPD2 181702Z 28017G24KT 18/02 A297 RMK A01 T01760022  RH  036%=      5-min Rain = 0
KPD2 181703Z 30014KT 18/02 A297 RMK A01 T01750022  RH  036%=      5-min Rain = 0
KPD2 181704Z 30014KT 17/02 A297 RMK A01 T01730023  RH  036%=      5-min Rain = 0
KPD2 181705Z 28015G21KT 17/02 A2969 RMK A01 T01730023  RH  037%=      5-min Rain = 0
KPD2 181706Z 29014G21KT 17/02 A2969 RMK A01 T01730023  RH  037%=      5-min Rain = 0
KPD2 181707Z 27016G21KT 17/02 A2969 RMK A01 T01730024  RH  037%=      5-min Rain = 0
KPD2 181708Z 28016G26KT 17/02 A2969 RMK A01 T01730024  RH  037%=      5-min Rain = 0
KPD2 181709Z 27011G17KT 17/03 A2969 RMK A01 T01740025  RH  037%=      5-min Rain = 0
KPD2 181710Z 29014G26KT 18/03 A2969 RMK A01 T01760027  RH  037%=      5-min Rain = 0
KPD2 181711Z 28013KT 18/03 A2969 RMK A01 T01790027  RH  036%=      5-min Rain = 0
KPD2 181712Z 28017G24KT 18/03 A2969 RMK A01 T01800027  RH  036%=      5-min Rain = 0
KPD2 181713Z 28019G27KT 18/03 A2969 RMK A01 T01810027  RH  036%=      5-min Rain = 0
KPD2 181714Z 27017G26KT 18/03 A2969 RMK A01 T01810027  RH  036%=      5-min Rain = 0
KPD2 181715Z 29017G25KT 18/03 A2969 RMK A01 T01810027  RH  036%=      5-min Rain = 0
KPD2 181716Z 28019G28KT 18/03 A2969 RMK A01 T01810027  RH  036%=      5-min Rain = 0
KPD2 181717Z 28021G30KT 18/03 A2969 RMK A01 T01810026  RH  036%=      5-min Rain = 0
KPD2 181718Z 29017G25KT 18/03 A2969 RMK A01 T01810026  RH  036%=      5-min Rain = 0
KPD2 181719Z 29013G18KT 18/03 A2969 RMK A01 T01800027  RH  036%=      5-min Rain = 0
KPD2 181720Z 30016G22KT 18/03 A2969 RMK A01 T01820028  RH  036%=      5-min Rain = 0
KPD2 181721Z 27015G23KT 18/03 A2969 RMK A01 T01830028  RH  036%=      5-min Rain = 0
KPD2 181722Z 26017G24KT 18/03 A2969 RMK A01 T01830027  RH  035%=      5-min Rain = 0
KPD2 181723Z 27011G16KT 18/03 A2968 RMK A01 T01830027  RH  035%=      5-min Rain = 0
KPD2 181724Z 26015G23KT 18/03 A2968 RMK A01 T01840029  RH  035%=      5-min Rain = 0
KPD2 181725Z 30015KT 19/03 A2968 RMK A01 T01850029  RH  035%=      5-min Rain = 0
KPD2 181726Z 30017G24KT 19/03 A2968 RMK A01 T01860029  RH  035%=      5-min Rain = 0
KPD2 181727Z 30019G30KT 19/03 A2968 RMK A01 T01850027  RH  035%=      5-min Rain = 0
KPD2 181728Z 30011KT 18/03 A2968 RMK A01 T01840028  RH  035%=      5-min Rain = 0
KPD2 181729Z 28016G23KT 19/03 A2968 RMK A01 T01850028  RH  035%=      5-min Rain = 0
KPD2 181730Z 28013G18KT 19/03 A2968 RMK A01 T01850026  RH  035%=      5-min Rain = 0
KPD2 181731Z 27014G21KT 18/03 A2968 RMK A01 T01840027  RH  035%=      5-min Rain = 0
KPD2 181732Z 28017G23KT 18/03 A2968 RMK A01 T01830026  RH  035%=      5-min Rain = 0
KPD2 181733Z 27018G23KT 18/03 A2967 RMK A01 T01830027  RH  035%=      5-min Rain = 0
KPD2 181734Z 28013G20KT 18/03 A2968 RMK A01 T01830027  RH  035%=      5-min Rain = 0
KPD2 181735Z 30015G21KT 18/03 A2967 RMK A01 T01840027  RH  035%=      5-min Rain = 0
KPD2 181736Z 29019G26KT 19/03 A2967 RMK A01 T01850027  RH  035%=      5-min Rain = 0
KPD2 181737Z 28019G28KT 19/03 A2967 RMK A01 T01850027  RH  035%=      5-min Rain = 0
KPD2 181738Z 28017G25KT 18/03 A2967 RMK A01 T01840027  RH  035%=      5-min Rain = 0
KPD2 181739Z 28019G24KT 18/03 A2968 RMK A01 T01840027  RH  035%=      5-min Rain = 0
KPD2 181740Z 28017G26KT 18/03 A2967 RMK A01 T01840027  RH  035%=      5-min Rain = 0
KPD2 181741Z 29018G31KT 18/03 A2967 RMK A01 T01840027  RH  035%=      5-min Rain = 0
KPD2 181742Z 29019G26KT 18/03 A2967 RMK A01 T01840028  RH  035%=      5-min Rain = 0
KPD2 181743Z 28020G28KT 19/03 A2967 RMK A01 T01850028  RH  035%=      5-min Rain = 0
KPD2 181744Z 29011KT 19/03 A2967 RMK A01 T01850029  RH  035%=      5-min Rain = 0
KPD2 181745Z 29010KT 19/03 A2966 RMK A01 T01870031  RH  035%=      5-min Rain = 0
KPD2 181746Z 27015G22KT 19/03 A2967 RMK A01 T01890029  RH  035%=      5-min Rain = 0
KPD2 181747Z 28010KT 19/03 A2967 RMK A01 T01890029  RH  034%=      5-min Rain = 0
KPD2 181748Z 30011G17KT 19/03 A2967 RMK A01 T01910030  RH  034%=      5-min Rain = 0
KPD2 181749Z 29014G21KT 19/03 A2967 RMK A01 T01920029  RH  034%=      5-min Rain = 0
KPD2 181750Z 29016G28KT 19/03 A2967 RMK A01 T01920028  RH  034%=      5-min Rain = 0
KPD2 181751Z 28019G32KT 19/03 A2967 RMK A01 T01910027  RH  034%=      5-min Rain = 0
KPD2 181752Z 28017G26KT 19/03 A2967 RMK A01 T01900026  RH  034%=      5-min Rain = 0
KPD2 181753Z 27015G20KT 19/03 A2967 RMK A01 T01900026  RH  034%=      5-min Rain = 0
KPD2 181754Z 27018G28KT 19/03 A2966 RMK A01 T01890026  RH  034%=      5-min Rain = 0
KPD2 181755Z 28015G21KT 19/03 A2966 RMK A01 T01890026  RH  034%=      5-min Rain = 0
KPD2 181756Z 28019G26KT 19/03 A2966 RMK A01 T01900027  RH  034%=      5-min Rain = 0
KPD2 181757Z 29016G22KT 19/03 A2966 RMK A01 T01900027  RH  034%=      5-min Rain = 0
KPD2 181758Z 27015G23KT 19/03 A2966 RMK A01 T01900027  RH  034%=      5-min Rain = 0
KPD2 181759Z 27019G26KT 19/03 A2966 RMK A01 T01910026  RH  034%=      5-min Rain = 0
KPD2 181800Z 28016G28KT 19/03 A2966 RMK A01 T01900026  RH  034%=      5-min Rain = 0
KPD2 181801Z 27022G33KT 19/03 A2966 RMK A01 T01900026  RH  034%=      5-min Rain = 0
KPD2 181802Z 27017G27KT 19/03 A2966 RMK A01 T01890025  RH  034%=      5-min Rain = 0
KPD2 181803Z 28018G26KT 19/03 A2966 RMK A01 T01880025  RH  034%=      5-min Rain = 0
KPD2 181804Z 27015G23KT 19/02 A2966 RMK A01 T01880024  RH  033%=      5-min Rain = 0
KPD2 181805Z 27016G24KT 19/02 A2965 RMK A01 T01890024  RH  033%=      5-min Rain = 0
KPD2 181806Z 28013G20KT 19/02 A2965 RMK A01 T01900024  RH  033%=      5-min Rain = 0
KPD2 181807Z 28012G17KT 19/03 A2965 RMK A01 T01920025  RH  033%=      5-min Rain = 0
KPD2 181808Z 28008G14KT 19/03 A2965 RMK A01 T01940025  RH  033%=      5-min Rain = 0
KPD2 181809Z 28013G19KT 20/03 A2965 RMK A01 T01960025  RH  032%=      5-min Rain = 0
KPD2 181810Z 29010G18KT 20/02 A2964 RMK A01 T01970024  RH  032%=      5-min Rain = 0
KPD2 181811Z 29010KT 20/03 A2964 RMK A01 T01980025  RH  032%=      5-min Rain = 0
KPD2 181812Z 30010G15KT 20/03 A2964 RMK A01 T02000025  RH  031%=      5-min Rain = 0
KPD2 181813Z 29014KT 20/02 A2964 RMK A01 T02010022  RH  030%=      5-min Rain = 0
KPD2 181814Z 28014G20KT 20/02 A2964 RMK A01 T02010021  RH  030%=      5-min Rain = 0
KPD2 181815Z 26012KT 20/02 A2964 RMK A01 T02000020  RH  030%=      5-min Rain = 0
KPD2 181816Z 29014G23KT 20/02 A2964 RMK A01 T01990022  RH  031%=      5-min Rain = 0
KPD2 181817Z 29015G21KT 20/02 A2964 RMK A01 T01990021  RH  031%=      5-min Rain = 0
KPD2 181818Z 28013G20KT 20/02 A2964 RMK A01 T01990022  RH  031%=      5-min Rain = 0
KPD2 181819Z 29018G25KT 20/02 A2964 RMK A01 T02000022  RH  031%=      5-min Rain = 0
KPD2 181820Z 28016G23KT 20/02 A2964 RMK A01 T01990021  RH  031%=      5-min Rain = 0
KPD2 181821Z 28019G24KT 20/02 A2964 RMK A01 T01980019  RH  030%=      5-min Rain = 0
KPD2 181822Z 28022G27KT 20/02 A2964 RMK A01 T01960018  RH  031%=      5-min Rain = 0
KPD2 181823Z 28017G26KT 20/02 A2964 RMK A01 T01950018  RH  031%=      5-min Rain = 0
KPD2 181824Z 27019G30KT 20/02 A2964 RMK A01 T01950018  RH  031%=      5-min Rain = 0
KPD2 181825Z 27019G29KT 20/02 A2964 RMK A01 T01960016  RH  030%=      5-min Rain = 0
KPD2 181826Z 28019G24KT 20/02 A2963 RMK A01 T01960017  RH  030%=      5-min Rain = 0
KPD2 181827Z 28013G21KT 20/02 A2963 RMK A01 T01950018  RH  031%=      5-min Rain = 0
KPD2 181828Z 27016G21KT 20/02 A2963 RMK A01 T01960018  RH  031%=      5-min Rain = 0
KPD2 181829Z 26016G22KT 20/02 A2963 RMK A01 T01960018  RH  030%=      5-min Rain = 0
KPD2 181830Z 27016G22KT 20/02 A2963 RMK A01 T01960018  RH  030%=      5-min Rain = 0
KPD2 181831Z 31015G23KT 20/02 A2963 RMK A01 T01980020  RH  031%=      5-min Rain = 0
KPD2 181832Z 28015G20KT 20/02 A2963 RMK A01 T02000021  RH  030%=      5-min Rain = 0
KPD2 181833Z 27015G25KT 20/02 A2963 RMK A01 T02000019  RH  030%=      5-min Rain = 0
KPD2 181834Z 28020G29KT 20/02 A2963 RMK A01 T02000016  RH  029%=      5-min Rain = 0
KPD2 181835Z 29014G22KT 20/01 A2963 RMK A01 T01980012  RH  029%=      5-min Rain = 0
KPD2 181836Z 28019G29KT 20/01 A2962 RMK A01 T01980011  RH  029%=      5-min Rain = 0
KPD2 181837Z 27023G34KT 20/01 A2962 RMK A01 T01970008  RH  028%=      5-min Rain = 0
KPD2 181838Z 28015G23KT 20/01 A2962 RMK A01 T01970008  RH  028%=      5-min Rain = 0
KPD2 181839Z 28015G22KT 20/01 A2962 RMK A01 T01970010  RH  029%=      5-min Rain = 0
KPD2 181840Z 29016KT 20/01 A2962 RMK A01 T01990010  RH  028%=      5-min Rain = 0
KPD2 181841Z 28012G18KT 20/01 A2962 RMK A01 T01990010  RH  028%=      5-min Rain = 0
KPD2 181842Z 29010G17KT 20/01 A2962 RMK A01 T02010011  RH  028%=      5-min Rain = 0
KPD2 181843Z 30011G17KT 20/01 A2961 RMK A01 T02030011  RH  028%=      5-min Rain = 0
KPD2 181844Z 31015G21KT 20/01 A2961 RMK A01 T02040010  RH  027%=      5-min Rain = 0
KPD2 181845Z 30022G27KT 21/01 A2961 RMK A01 T02050008  RH  027%=      5-min Rain = 0
KPD2 181846Z 30021G28KT 20/00 A2961 RMK A01 T02040004  RH  026%=      5-min Rain = 0
KPD2 181847Z 30014G22KT 20/00 A2961 RMK A01 T02010001  RH  026%=      5-min Rain = 0
KPD2 181848Z 29017G29KT 20/00 A2961 RMK A01 T02010002  RH  026%=      5-min Rain = 0
KPD2 181849Z 29020G26KT 20/00 A2961 RMK A01 T02010000  RH  026%=      5-min Rain = 0
KPD2 181850Z 30017G24KT 20/00 A2961 RMK A01 T01990000  RH  026%=      5-min Rain = 0
KPD2 181851Z 31017G22KT 20/00 A2961 RMK A01 T01990002  RH  027%=      5-min Rain = 0
KPD2 181852Z 30019G24KT 20/00 A2961 RMK A01 T02010001  RH  026%=      5-min Rain = 0
KPD2 181853Z 30020G27KT 20/00 A2961 RMK A01 T02010001  RH  026%=      5-min Rain = 0
KPD2 181854Z 30016G22KT 20/00 A2961 RMK A01 T02000001  RH  026%=      5-min Rain = 0
KPD2 181855Z 29013G19KT 20/00 A2961 RMK A01 T02000003  RH  027%=      5-min Rain = 0
KPD2 181856Z 28017G26KT 20/00 A2961 RMK A01 T02010004  RH  027%=      5-min Rain = 0
KPD2 181857Z 30015G24KT 20/00 A296 RMK A01 T02010004  RH  027%=      5-min Rain = 0
KPD2 181858Z 30023G30KT 20/00 A296 RMK A01 T02010003  RH  027%=      5-min Rain = 0
KPD2 181859Z 29017G24KT 20/00 A296 RMK A01 T02010002  RH  026%=      5-min Rain = 0
KPD2 181900Z 30016G28KT 20/00 A296 RMK A01 T02010003  RH  026%=      5-min Rain = 0
KPD2 181901Z 28015G20KT 20/00 A296 RMK A01 T02020003  RH  026%=      5-min Rain = 0
KPD2 181902Z 27017KT 20/00 A296 RMK A01 T02020002  RH  026%=      5-min Rain = 0
KPD2 181903Z 28015G20KT 20/00 A296 RMK A01 T02020002  RH  026%=      5-min Rain = 0
KPD2 181904Z 27010KT 20/00 A296 RMK A01 T02020003  RH  026%=      5-min Rain = 0
KPD2 181905Z 29019G35KT 21/00 A296 RMK A01 T02050004  RH  026%=      5-min Rain = 0
KPD2 181906Z 30020G28KT 21/00 A296 RMK A01 T02060002  RH  026%=      5-min Rain = 0
KPD2 181907Z 28015G21KT 21/00 A296 RMK A01 T02050001  RH  026%=      5-min Rain = 0
KPD2 181908Z 28015G25KT 21/00 A296 RMK A01 T02050000  RH  025%=      5-min Rain = 0
KPD2 181909Z 27015G23KT 20/00 A296 RMK A01 T020400-0  RH  025%=      5-min Rain = 0
KPD2 181910Z 29012G17KT 20/M00 A296 RMK A01 T02021002  RH  025%=      5-min Rain = 0
KPD2 181911Z 30015G22KT 20/M00 A296 RMK A01 T02021002  RH  025%=      5-min Rain = 0
KPD2 181912Z 28018G25KT 20/M01 A296 RMK A01 T02021005  RH  025%=      5-min Rain = 0
KPD2 181913Z 28014KT 20/M01 A296 RMK A01 T02001008  RH  025%=      5-min Rain = 0
KPD2 181914Z 27017KT 20/M01 A296 RMK A01 T01981006  RH  025%=      5-min Rain = 0
KPD2 181915Z 30010KT 20/M00 A296 RMK A01 T01981004  RH  026%=      5-min Rain = 0
KPD2 181916Z 30015G20KT 20/M00 A296 RMK A01 T01981002  RH  026%=      5-min Rain = 0
KPD2 181917Z 30017G24KT 20/M00 A296 RMK A01 T01991003  RH  026%=      5-min Rain = 0
KPD2 181918Z 29013G20KT 20/M00 A296 RMK A01 T01971004  RH  026%=      5-min Rain = 0
KPD2 181919Z 30017G26KT 20/M00 A296 RMK A01 T01961003  RH  026%=      5-min Rain = 0
KPD2 181920Z 30020KT 20/M01 A2959 RMK A01 T01951005  RH  026%=      5-min Rain = 0
KPD2 181921Z 29019G24KT 20/M01 A2959 RMK A01 T01951005  RH  026%=      5-min Rain = 0
KPD2 181922Z 29018G26KT 19/M00 A2959 RMK A01 T01941004  RH  026%=      5-min Rain = 0
KPD2 181923Z 29016G25KT 19/M00 A2959 RMK A01 T01941003  RH  027%=      5-min Rain = 0
KPD2 181924Z 29016G22KT 19/M00 A2959 RMK A01 T01941004  RH  026%=      5-min Rain = 0
KPD2 181925Z 29016G21KT 19/M00 A2959 RMK A01 T01941004  RH  026%=      5-min Rain = 0
KPD2 181926Z 27008KT 19/M01 A2959 RMK A01 T01941005  RH  026%=      5-min Rain = 0
KPD2 181927Z 29012KT 20/M00 A2958 RMK A01 T01971002  RH  026%=      5-min Rain = 0
KPD2 181928Z 29015G24KT 20/M00 A2958 RMK A01 T02021002  RH  025%=      5-min Rain = 0
KPD2 181929Z 30016G25KT 20/M01 A2958 RMK A01 T02041006  RH  024%=      5-min Rain = 0
KPD2 181930Z 30014G19KT 21/M01 A2958 RMK A01 T02051007  RH  024%=      5-min Rain = 0
KPD2 181931Z 29009G16KT 21/M01 A2958 RMK A01 T02061006  RH  024%=      5-min Rain = 0
KPD2 181932Z 30010G15KT 21/M01 A2958 RMK A01 T02081006  RH  024%=      5-min Rain = 0
KPD2 181933Z 27008KT 21/M01 A2958 RMK A01 T02081007  RH  024%=      5-min Rain = 0
KPD2 181934Z 29010G19KT 21/M01 A2958 RMK A01 T02091007  RH  024%=      5-min Rain = 0
KPD2 181935Z 29012KT 21/M01 A2958 RMK A01 T02081009  RH  023%=      5-min Rain = 0
KPD2 181936Z 27011G17KT 21/M01 A2958 RMK A01 T02061011  RH  023%=      5-min Rain = 0
KPD2 181937Z 26012G17KT 20/M01 A2958 RMK A01 T02041014  RH  023%=      5-min Rain = 0
KPD2 181938Z 28013G19KT 20/M02 A2958 RMK A01 T02031016  RH  023%=      5-min Rain = 0
KPD2 181939Z 30017G24KT 20/M02 A2958 RMK A01 T02021016  RH  023%=      5-min Rain = 0
KPD2 181940Z 30018G25KT 20/M02 A2958 RMK A01 T02011017  RH  023%=      5-min Rain = 0
KPD2 181941Z 30018KT 20/M02 A2958 RMK A01 T01991019  RH  023%=      5-min Rain = 0
KPD2 181942Z 29016G21KT 20/M02 A2957 RMK A01 T01981020  RH  023%=      5-min Rain = 0
KPD2 181943Z 28011G16KT 20/M02 A2958 RMK A01 T01981019  RH  023%=      5-min Rain = 0
KPD2 181944Z 28012G22KT 20/M02 A2958 RMK A01 T01981018  RH  023%=      5-min Rain = 0
KPD2 181945Z 27017G24KT 20/M02 A2958 RMK A01 T01991023  RH  022%=      5-min Rain = 0
KPD2 181946Z 27014G23KT 20/M03 A2958 RMK A01 T01991025  RH  022%=      5-min Rain = 0
KPD2 181947Z 27015G23KT 20/M03 A2958 RMK A01 T01981027  RH  022%=      5-min Rain = 0
KPD2 181948Z 30011KT 20/M03 A2958 RMK A01 T01991026  RH  022%=      5-min Rain = 0
KPD2 181949Z 32014G19KT 20/M03 A2958 RMK A01 T02011026  RH  021%=      5-min Rain = 0
KPD2 181950Z 32017G23KT 20/M03 A2957 RMK A01 T02011025  RH  022%=      5-min Rain = 0
KPD2 181951Z 31013G20KT 20/M03 A2958 RMK A01 T02021026  RH  021%=      5-min Rain = 0
KPD2 181952Z 31019G27KT 20/M03 A2958 RMK A01 T02011026  RH  021%=      5-min Rain = 0
KPD2 181953Z 31016G23KT 20/M03 A2958 RMK A01 T01991029  RH  021%=      5-min Rain = 0
KPD2 181954Z 31017G28KT 20/M03 A2958 RMK A01 T01971029  RH  022%=      5-min Rain = 0
KPD2 181955Z 31017G26KT 20/M03 A2958 RMK A01 T01961031  RH  021%=      5-min Rain = 0
KPD2 181956Z 29013KT 19/M03 A2958 RMK A01 T01941030  RH  022%=      5-min Rain = 0
KPD2 181957Z 31017G23KT 19/M03 A2958 RMK A01 T01931030  RH  022%=      5-min Rain = 0
KPD2 181958Z 31018G24KT 19/M03 A2958 RMK A01 T01941030  RH  022%=      5-min Rain = 0
KPD2 181959Z 29014KT 19/M03 A2958 RMK A01 T01941032  RH  022%=      5-min Rain = 0
KPD2 182000Z 29013KT 19/M03 A2958 RMK A01 T01941032  RH  021%=      5-min Rain = 0
KPD2 182001Z 30012G17KT 20/M03 A2958 RMK A01 T01951031  RH  021%=      5-min Rain = 0
KPD2 182002Z 29015G25KT 20/M03 A2958 RMK A01 T01981033  RH  021%=      5-min Rain = 0
KPD2 182003Z 31016G22KT 20/M04 A2958 RMK A01 T01991036  RH  020%=      5-min Rain = 0
KPD2 182004Z 31014G19KT 20/M03 A2957 RMK A01 T02001033  RH  021%=      5-min Rain = 0
KPD2 182005Z 29012G17KT 20/M03 A2957 RMK A01 T02011031  RH  021%=      5-min Rain = 0
KPD2 182006Z 30015G21KT 20/M03 A2958 RMK A01 T02041030  RH  021%=      5-min Rain = 0
KPD2 182007Z 31014KT 20/M04 A2957 RMK A01 T02041035  RH  020%=      5-min Rain = 0
KPD2 182008Z 30016G22KT 20/M03 A2957 RMK A01 T02041034  RH  020%=      5-min Rain = 0
KPD2 182009Z 31020G31KT 21/M03 A2957 RMK A01 T02061032  RH  020%=      5-min Rain = 0
KPD2 182010Z 31022G30KT 21/M04 A2957 RMK A01 T02071035  RH  019%=      5-min Rain = 0
KPD2 182011Z 30016G21KT 21/M04 A2957 RMK A01 T02071037  RH  019%=      5-min Rain = 0
KPD2 182012Z 29012KT 21/M04 A2957 RMK A01 T02071037  RH  019%=      5-min Rain = 0
KPD2 182013Z 29013G21KT 21/M04 A2957 RMK A01 T02081036  RH  019%=      5-min Rain = 0
KPD2 182014Z 27015G22KT 21/M04 A2957 RMK A01 T02091038  RH  019%=      5-min Rain = 0
KPD2 182015Z 27017G24KT 21/M04 A2957 RMK A01 T02091042  RH  018%=      5-min Rain = 0
KPD2 182016Z 28015G21KT 21/M04 A2957 RMK A01 T02081044  RH  018%=      5-min Rain = 0
KPD2 182017Z 29019G24KT 21/M05 A2958 RMK A01 T02071045  RH  018%=      5-min Rain = 0
KPD2 182018Z 30014G20KT 21/M05 A2958 RMK A01 T02051046  RH  018%=      5-min Rain = 0
KPD2 182019Z 31015G21KT 21/M04 A2958 RMK A01 T02051044  RH  018%=      5-min Rain = 0
KPD2 182020Z 30019G29KT 21/M05 A2958 RMK A01 T02051046  RH  018%=      5-min Rain = 0
KPD2 182021Z 29020G27KT 20/M05 A2958 RMK A01 T02031051  RH  018%=      5-min Rain = 0
KPD2 182022Z 30013G20KT 20/M05 A2958 RMK A01 T02011050  RH  018%=      5-min Rain = 0
KPD2 182023Z 31016G27KT 20/M05 A2957 RMK A01 T02001050  RH  018%=      5-min Rain = 0
KPD2 182024Z 31018G23KT 20/M05 A2957 RMK A01 T02001051  RH  018%=      5-min Rain = 0
KPD2 182025Z 31020G25KT 20/M05 A2957 RMK A01 T02001051  RH  018%=      5-min Rain = 0
KPD2 182026Z 30019G25KT 20/M05 A2957 RMK A01 T01991051  RH  018%=      5-min Rain = 0
KPD2 182027Z 31017G23KT 20/M05 A2957 RMK A01 T01991050  RH  018%=      5-min Rain = 0
KPD2 182028Z 31024G29KT 20/M05 A2957 RMK A01 T02001051  RH  018%=      5-min Rain = 0
KPD2 182029Z 31019G27KT 20/M05 A2957 RMK A01 T02001054  RH  017%=      5-min Rain = 0
KPD2 182030Z 32024G30KT 20/M06 A2957 RMK A01 T01991055  RH  017%=      5-min Rain = 0
KPD2 182031Z 32020G26KT 20/M06 A2957 RMK A01 T01991055  RH  017%=      5-min Rain = 0
KPD2 182032Z 32016G24KT 20/M05 A2957 RMK A01 T01981054  RH  018%=      5-min Rain = 0
KPD2 182033Z 31013G19KT 20/M05 A2957 RMK A01 T01981051  RH  018%=      5-min Rain = 0
KPD2 182034Z 31015G22KT 20/M05 A2957 RMK A01 T01991048  RH  018%=      5-min Rain = 0
KPD2 182035Z 31015G23KT 20/M05 A2957 RMK A01 T01991046  RH  019%=      5-min Rain = 0
KPD2 182036Z 29014G22KT 20/M04 A2957 RMK A01 T02001044  RH  019%=      5-min Rain = 0
KPD2 182037Z 29013G18KT 20/M04 A2957 RMK A01 T01991044  RH  019%=      5-min Rain = 0
KPD2 182038Z 29016G22KT 20/M04 A2957 RMK A01 T01981044  RH  019%=      5-min Rain = 0
KPD2 182039Z 30018G26KT 20/M04 A2957 RMK A01 T01971044  RH  019%=      5-min Rain = 0
KPD2 182040Z 29021G29KT 20/M05 A2957 RMK A01 T01971045  RH  019%=      5-min Rain = 0
KPD2 182041Z 30015G24KT 20/M05 A2957 RMK A01 T01961047  RH  019%=      5-min Rain = 0
KPD2 182042Z 30015KT 20/M05 A2957 RMK A01 T01951046  RH  019%=      5-min Rain = 0
KPD2 182043Z 30012G17KT 20/M05 A2957 RMK A01 T01951046  RH  019%=      5-min Rain = 0
KPD2 182044Z 30015G21KT 20/M05 A2957 RMK A01 T01951045  RH  019%=      5-min Rain = 0
KPD2 182045Z 31017G26KT 20/M05 A2957 RMK A01 T01951045  RH  019%=      5-min Rain = 0
KPD2 182046Z 31017G23KT 20/M05 A2957 RMK A01 T01951045  RH  019%=      5-min Rain = 0
KPD2 182047Z 29018G27KT 20/M05 A2957 RMK A01 T01951045  RH  019%=      5-min Rain = 0
KPD2 182048Z 31013KT 20/M05 A2957 RMK A01 T01951045  RH  019%=      5-min Rain = 0
KPD2 182049Z 32011KT 20/M04 A2957 RMK A01 T01951043  RH  020%=      5-min Rain = 0
KPD2 182050Z 32012KT 20/M04 A2957 RMK A01 T01971041  RH  020%=      5-min Rain = 0
KPD2 182051Z 30012KT 20/M04 A2957 RMK A01 T01981041  RH  019%=      5-min Rain = 0
KPD2 182052Z 31013G18KT 20/M04 A2957 RMK A01 T01981042  RH  019%=      5-min Rain = 0
KPD2 182053Z 30015G20KT 20/M04 A2957 RMK A01 T01971043  RH  019%=      5-min Rain = 0
KPD2 182054Z 30013G19KT 20/M04 A2957 RMK A01 T01971043  RH  019%=      5-min Rain = 0
KPD2 182055Z 31013KT 20/M04 A2957 RMK A01 T01971042  RH  020%=      5-min Rain = 0
KPD2 182056Z 31015G21KT 20/M04 A2957 RMK A01 T01961042  RH  020%=      5-min Rain = 0
KPD2 182057Z 30015G26KT 20/M04 A2957 RMK A01 T01961043  RH  020%=      5-min Rain = 0
KPD2 182058Z 30016G22KT 20/M04 A2957 RMK A01 T01961043  RH  019%=      5-min Rain = 0
KPD2 182059Z 31017KT 19/M05 A2957 RMK A01 T01941045  RH  019%=      5-min Rain = 0
KPD2 182100Z 30017G22KT 19/M04 A2957 RMK A01 T01931044  RH  020%=      5-min Rain = 0
KPD2 182101Z 30018G23KT 19/M05 A2957 RMK A01 T01931045  RH  020%=      5-min Rain = 0
KPD2 182102Z 30015G21KT 19/M05 A2957 RMK A01 T01921046  RH  020%=      5-min Rain = 0
KPD2 182103Z 29012G19KT 19/M05 A2957 RMK A01 T01921045  RH  020%=      5-min Rain = 0
KPD2 182104Z 30013G18KT 19/M05 A2957 RMK A01 T01921045  RH  020%=      5-min Rain = 0
KPD2 182105Z 30014G19KT 19/M05 A2957 RMK A01 T01911045  RH  020%=      5-min Rain = 0
KPD2 182106Z 29011KT 19/M05 A2957 RMK A01 T01911046  RH  020%=      5-min Rain = 0
KPD2 182107Z 29014G20KT 19/M05 A2957 RMK A01 T01911048  RH  019%=      5-min Rain = 0
KPD2 182108Z 29014G20KT 19/M05 A2957 RMK A01 T01901049  RH  019%=      5-min Rain = 0
KPD2 182109Z 30013G19KT 19/M05 A2957 RMK A01 T01901049  RH  019%=      5-min Rain = 0
KPD2 182110Z 29014G19KT 19/M05 A2957 RMK A01 T01901048  RH  020%=      5-min Rain = 0
KPD2 182111Z 30009G17KT 19/M05 A2957 RMK A01 T01901047  RH  020%=      5-min Rain = 0
KPD2 182112Z 30010KT 19/M05 A2957 RMK A01 T01901046  RH  020%=      5-min Rain = 0
KPD2 182113Z 27008KT 19/M05 A2957 RMK A01 T01901046  RH  020%=      5-min Rain = 0
KPD2 182114Z 28011KT 19/M05 A2957 RMK A01 T01901047  RH  020%=      5-min Rain = 0
KPD2 182115Z 28009G17KT 19/M05 A2957 RMK A01 T01901046  RH  020%=      5-min Rain = 0
KPD2 182116Z 30012G18KT 19/M05 A2957 RMK A01 T01901045  RH  020%=      5-min Rain = 0
KPD2 182117Z 30012G19KT 19/M05 A2957 RMK A01 T01901045  RH  020%=      5-min Rain = 0
KPD2 182118Z 29014G19KT 19/M05 A2957 RMK A01 T01901045  RH  020%=      5-min Rain = 0
KPD2 182119Z 28011G17KT 19/M04 A2957 RMK A01 T01891044  RH  020%=      5-min Rain = 0
KPD2 182120Z 29011KT 19/M04 A2957 RMK A01 T01891043  RH  020%=      5-min Rain = 0
KPD2 182121Z 28010KT 19/M04 A2957 RMK A01 T01881044  RH  020%=      5-min Rain = 0
KPD2 182122Z 28010G18KT 19/M04 A2958 RMK A01 T01881043  RH  021%=      5-min Rain = 0
KPD2 182123Z 28016G21KT 19/M04 A2958 RMK A01 T01881043  RH  021%=      5-min Rain = 0
KPD2 182124Z 27014KT 19/M04 A2958 RMK A01 T01881041  RH  021%=      5-min Rain = 0
KPD2 182125Z 28014G19KT 19/M04 A2958 RMK A01 T01871040  RH  021%=      5-min Rain = 0
KPD2 182126Z 28012G22KT 19/M04 A2958 RMK A01 T01871038  RH  021%=      5-min Rain = 0
KPD2 182127Z 27015G25KT 19/M04 A2958 RMK A01 T01851035  RH  022%=      5-min Rain = 0
KPD2 182128Z 26013KT 18/M03 A2958 RMK A01 T01841033  RH  023%=      5-min Rain = 0
KPD2 182129Z 26016KT 18/M03 A2958 RMK A01 T01831033  RH  023%=      5-min Rain = 0
KPD2 182130Z 28011G18KT 18/M03 A2958 RMK A01 T01831033  RH  023%=      5-min Rain = 0
KPD2 182131Z 28010G15KT 18/M03 A2958 RMK A01 T01821033  RH  023%=      5-min Rain = 0
KPD2 182132Z 29010KT 18/M03 A2958 RMK A01 T01821032  RH  023%=      5-min Rain = 0
KPD2 182133Z 29009G14KT 18/M03 A2958 RMK A01 T01811033  RH  023%=      5-min Rain = 0
KPD2 182134Z 29012G17KT 18/M03 A2958 RMK A01 T01811033  RH  023%=      5-min Rain = 0
KPD2 182135Z 28011G18KT 18/M03 A2958 RMK A01 T01811034  RH  023%=      5-min Rain = 0
KPD2 182136Z 28009KT 18/M04 A2958 RMK A01 T01801035  RH  023%=      5-min Rain = 0
KPD2 182137Z 28010G16KT 18/M04 A2958 RMK A01 T01801036  RH  023%=      5-min Rain = 0
KPD2 182138Z 29013G18KT 18/M04 A2958 RMK A01 T01801037  RH  023%=      5-min Rain = 0
KPD2 182139Z 28010KT 18/M04 A2958 RMK A01 T01801038  RH  022%=      5-min Rain = 0
KPD2 182140Z 28011KT 18/M04 A2958 RMK A01 T01801039  RH  022%=      5-min Rain = 0
KPD2 182141Z 27012KT 18/M04 A2959 RMK A01 T01801039  RH  022%=      5-min Rain = 0
KPD2 182142Z 28009G14KT 18/M04 A2959 RMK A01 T01791040  RH  022%=      5-min Rain = 0
KPD2 182143Z 28008G13KT 18/M04 A2959 RMK A01 T01791040  RH  022%=      5-min Rain = 0
KPD2 182144Z 27009KT 18/M04 A2959 RMK A01 T01791039  RH  022%=      5-min Rain = 0
KPD2 182145Z 26009G19KT 18/M04 A2959 RMK A01 T01791038  RH  022%=      5-min Rain = 0
KPD2 182146Z 26010KT 18/M04 A2959 RMK A01 T01781040  RH  022%=      5-min Rain = 0
KPD2 182147Z 28008KT 18/M04 A2959 RMK A01 T01791040  RH  022%=      5-min Rain = 0
KPD2 182148Z 27009KT 18/M04 A2959 RMK A01 T01791039  RH  022%=      5-min Rain = 0
KPD2 182149Z 27008G13KT 18/M04 A2959 RMK A01 T01791039  RH  022%=      5-min Rain = 0
KPD2 182150Z 28012G17KT 18/M04 A2959 RMK A01 T01791039  RH  022%=      5-min Rain = 0
KPD2 182151Z 28011G18KT 18/M04 A2959 RMK A01 T01791039  RH  022%=      5-min Rain = 0
KPD2 182152Z 28012KT 18/M04 A2959 RMK A01 T01791039  RH  022%=      5-min Rain = 0
KPD2 182153Z 27011KT 18/M04 A2959 RMK A01 T01791039  RH  022%=      5-min Rain = 0
KPD2 182154Z 28009KT 18/M04 A2959 RMK A01 T01791042  RH  022%=      5-min Rain = 0
KPD2 182155Z 29012KT 18/M04 A2959 RMK A01 T01801043  RH  022%=      5-min Rain = 0
KPD2 182156Z 28012G18KT 18/M05 A2959 RMK A01 T01801047  RH  021%=      5-min Rain = 0
KPD2 182157Z 28013G21KT 18/M05 A296 RMK A01 T01811054  RH  020%=      5-min Rain = 0
KPD2 182158Z 27016G26KT 18/M06 A296 RMK A01 T01831063  RH  018%=      5-min Rain = 0
KPD2 182159Z 28016G23KT 18/M07 A296 RMK A01 T01841067  RH  018%=      5-min Rain = 0
KPD2 182200Z 27018G25KT 19/M07 A296 RMK A01 T01851067  RH  017%=      5-min Rain = 0
KPD2 182201Z 27014G21KT 19/M07 A296 RMK A01 T01851069  RH  017%=      5-min Rain = 0
KPD2 182202Z 29013G18KT 19/M07 A296 RMK A01 T01851070  RH  017%=      5-min Rain = 0
KPD2 182203Z 30014G19KT 19/M07 A296 RMK A01 T01851068  RH  017%=      5-min Rain = 0
KPD2 182204Z 28010KT 19/M07 A296 RMK A01 T01851066  RH  018%=      5-min Rain = 0
KPD2 182205Z 28011KT 18/M07 A296 RMK A01 T01841066  RH  018%=      5-min Rain = 0
KPD2 182206Z 29008G13KT 18/M07 A296 RMK A01 T01841065  RH  018%=      5-min Rain = 0
KPD2 182207Z 28013G18KT 18/M06 A296 RMK A01 T01841063  RH  018%=      5-min Rain = 0
KPD2 182208Z 28011G17KT 18/M06 A296 RMK A01 T01841057  RH  019%=      5-min Rain = 0
KPD2 182209Z 28013KT 18/M05 A296 RMK A01 T01831053  RH  020%=      5-min Rain = 0
KPD2 182210Z 28013G18KT 18/M05 A296 RMK A01 T01831052  RH  020%=      5-min Rain = 0
KPD2 182211Z 27013G18KT 18/M06 A296 RMK A01 T01821056  RH  019%=      5-min Rain = 0
KPD2 182212Z 28012G17KT 18/M06 A296 RMK A01 T01821057  RH  019%=      5-min Rain = 0
KPD2 182213Z 29016KT 18/M06 A2961 RMK A01 T01821056  RH  019%=      5-min Rain = 0
KPD2 182214Z 29017G27KT 18/M06 A2961 RMK A01 T01821060  RH  019%=      5-min Rain = 0
KPD2 182215Z 32008G15KT 18/M06 A2961 RMK A01 T01821058  RH  019%=      5-min Rain = 0
KPD2 182216Z 31006KT 18/M06 A296 RMK A01 T01811059  RH  019%=      5-min Rain = 0
KPD2 182217Z 26006KT 18/M06 A296 RMK A01 T01811061  RH  019%=      5-min Rain = 0
KPD2 182218Z 29007KT 18/M06 A296 RMK A01 T01811061  RH  019%=      5-min Rain = 0
KPD2 182219Z 30008KT 18/M06 A296 RMK A01 T01811062  RH  019%=      5-min Rain = 0
KPD2 182220Z 29007KT 18/M06 A296 RMK A01 T01811063  RH  018%=      5-min Rain = 0
KPD2 182221Z 30008KT 18/M06 A296 RMK A01 T01811061  RH  019%=      5-min Rain = 0
KPD2 182222Z 28010G15KT 18/M06 A296 RMK A01 T01811061  RH  019%=      5-min Rain = 0
KPD2 182223Z 27007G12KT 18/M06 A296 RMK A01 T01811062  RH  019%=      5-min Rain = 0
KPD2 182224Z 31008KT 18/M06 A296 RMK A01 T01811062  RH  019%=      5-min Rain = 0
KPD2 182225Z 31010KT 18/M06 A296 RMK A01 T01811061  RH  019%=      5-min Rain = 0
KPD2 182226Z 33012KT 18/M06 A296 RMK A01 T01801061  RH  019%=      5-min Rain = 0
KPD2 182227Z 34014KT 18/M06 A296 RMK A01 T01801059  RH  019%=      5-min Rain = 0
KPD2 182228Z 34017KT 18/M06 A296 RMK A01 T01801059  RH  019%=      5-min Rain = 0
KPD2 182229Z 33011G18KT 18/M06 A296 RMK A01 T01801060  RH  019%=      5-min Rain = 0
KPD2 182230Z 31011G17KT 18/M06 A296 RMK A01 T01801060  RH  019%=      5-min Rain = 0
KPD2 182231Z 32011KT 18/M06 A296 RMK A01 T01791059  RH  019%=      5-min Rain = 0
KPD2 182232Z 33014G19KT 18/M06 A296 RMK A01 T01791058  RH  019%=      5-min Rain = 0
KPD2 182233Z 33016KT 18/M06 A296 RMK A01 T01791058  RH  019%=      5-min Rain = 0
KPD2 182234Z 33013KT 18/M06 A296 RMK A01 T01791058  RH  019%=      5-min Rain = 0
KPD2 182235Z 33011KT 18/M06 A296 RMK A01 T01781057  RH  020%=      5-min Rain = 0
KPD2 182236Z 32012KT 18/M06 A296 RMK A01 T01781057  RH  020%=      5-min Rain = 0
KPD2 182237Z 32012KT 18/M06 A296 RMK A01 T01791057  RH  020%=      5-min Rain = 0
KPD2 182238Z 32013KT 18/M06 A296 RMK A01 T01791056  RH  020%=      5-min Rain = 0
KPD2 182239Z 32013G18KT 18/M05 A296 RMK A01 T01781053  RH  020%=      5-min Rain = 0
KPD2 182240Z 32014G20KT 18/M05 A296 RMK A01 T01781053  RH  020%=      5-min Rain = 0
KPD2 182241Z 32012G18KT 18/M05 A2961 RMK A01 T01781052  RH  020%=      5-min Rain = 0
KPD2 182242Z 32015G21KT 18/M05 A2961 RMK A01 T01771051  RH  021%=      5-min Rain = 0
KPD2 182243Z 32014G19KT 18/M05 A2961 RMK A01 T01771050  RH  021%=      5-min Rain = 0
KPD2 182244Z 33014KT 18/M05 A296 RMK A01 T01761049  RH  021%=      5-min Rain = 0
KPD2 182245Z 32017G22KT 18/M05 A296 RMK A01 T01761050  RH  021%=      5-min Rain = 0
KPD2 182246Z 33015G20KT 18/M05 A296 RMK A01 T01751050  RH  021%=      5-min Rain = 0
KPD2 182247Z 33014KT 18/M05 A2961 RMK A01 T01751050  RH  021%=      5-min Rain = 0
KPD2 182248Z 32014KT 18/M05 A2961 RMK A01 T01751049  RH  021%=      5-min Rain = 0
KPD2 182249Z 32013KT 17/M05 A2961 RMK A01 T01741048  RH  022%=      5-min Rain = 0
KPD2 182250Z 32014G20KT 17/M05 A2961 RMK A01 T01741046  RH  022%=      5-min Rain = 0
KPD2 182251Z 33014G19KT 17/M04 A2961 RMK A01 T01731044  RH  022%=      5-min Rain = 0
KPD2 182252Z 33012KT 17/M04 A2962 RMK A01 T01721042  RH  023%=      5-min Rain = 0
KPD2 182253Z 33011KT 17/M04 A2962 RMK A01 T01701042  RH  023%=      5-min Rain = 0
KPD2 182254Z 33014G19KT 17/M04 A2962 RMK A01 T01701041  RH  023%=      5-min Rain = 0
KPD2 182255Z 34015G22KT 17/M04 A2962 RMK A01 T01691040  RH  024%=      5-min Rain = 0
KPD2 182256Z 33013G19KT 17/M04 A2962 RMK A01 T01691039  RH  024%=      5-min Rain = 0
KPD2 182257Z 33013KT 17/M04 A2962 RMK A01 T01681038  RH  024%=      5-min Rain = 0
KPD2 182258Z 33013KT 17/M04 A2962 RMK A01 T01681038  RH  024%=      5-min Rain = 0
KPD2 182259Z 34012KT 17/M04 A2962 RMK A01 T01671037  RH  024%=      5-min Rain = 0
KPD2 182300Z 35013KT 17/M04 A2962 RMK A01 T01671037  RH  024%=      5-min Rain = 0
KPD2 182301Z 35019G30KT 17/M03 A2963 RMK A01 T01671034  RH  025%=      5-min Rain = 0
KPD2 182302Z 36016KT 16/M01 A2964 RMK A01 T01601013  RH  030%=      5-min Rain = 0
KPD2 182303Z 35014G19KT 15/M01 A2964 RMK A01 T01491008  RH  034%=      5-min Rain = 0
KPD2 182304Z 36014G23KT 14/M01 A2964 RMK A01 T01421005  RH  036%=      5-min Rain = 0
KPD2 182305Z 01021G27KT 14/M00 A2964 RMK A01 T01361002  RH  039%=      5-min Rain = 0
KPD2 182306Z 01023G32KT 13/M00 A2964 RMK A01 T01311001  RH  040%=      5-min Rain = 0
KPD2 182307Z 01017G23KT 13/00 A2964 RMK A01 T01270001  RH  042%=      5-min Rain = 0
KPD2 182308Z 01026G35KT 13/00 A2964 RMK A01 T01260002  RH  042%=      5-min Rain = 0
KPD2 182309Z 01026G33KT 12/00 A2964 RMK A01 T01230002  RH  043%=      5-min Rain = 0
KPD2 182310Z 02025G33KT 12/00 A2964 RMK A01 T01200002  RH  044%=      5-min Rain = 0
KPD2 182311Z 02021G31KT 12/00 A2964 RMK A01 T01170003  RH  045%=      5-min Rain = 0
KPD2 182312Z 02020G26KT 12/00 A2965 RMK A01 T01160003  RH  046%=      5-min Rain = 0
KPD2 182313Z 00017KT 12/00 A2965 RMK A01 T01150003  RH  046%=      5-min Rain = 0
KPD2 182314Z 01013G20KT 11/00 A2965 RMK A01 T01140003  RH  046%=      5-min Rain = 0
KPD2 182315Z 35017G22KT 11/00 A2965 RMK A01 T01130003  RH  047%=      5-min Rain = 0
KPD2 182316Z 35019G28KT 11/00 A2965 RMK A01 T01120003  RH  047%=      5-min Rain = 0
KPD2 182317Z 35017G23KT 11/00 A2966 RMK A01 T01110003  RH  047%=      5-min Rain = 0
KPD2 182318Z 34021G26KT 11/00 A2965 RMK A01 T01100002  RH  047%=      5-min Rain = 0
KPD2 182319Z 34022G31KT 11/00 A2966 RMK A01 T01070000  RH  048%=      5-min Rain = 0
KPD2 182320Z 34023G30KT 11/00 A2966 RMK A01 T01060001  RH  048%=      5-min Rain = 0
KPD2 182321Z 34022G28KT 10/00 A2966 RMK A01 T01040001  RH  049%=      5-min Rain = 0
KPD2 182322Z 34020G27KT 10/00 A2966 RMK A01 T010200-0  RH  049%=      5-min Rain = 0
KPD2 182323Z 34021G27KT 10/00 A2967 RMK A01 T01010000  RH  050%=      5-min Rain = 0
KPD2 182324Z 34024G29KT 10/00 A2967 RMK A01 T00990000  RH  050%=      5-min Rain = 0
KPD2 182325Z 34025KT 10/00 A2967 RMK A01 T00960001  RH  051%=      5-min Rain = 0
KPD2 182326Z 35021G28KT 10/00 A2968 RMK A01 T00950002  RH  052%=      5-min Rain = 0
KPD2 182327Z 34016G21KT 09/00 A2968 RMK A01 T00930002  RH  053%=      5-min Rain = 0
KPD2 182328Z 34011G24KT 09/00 A2968 RMK A01 T00930002  RH  053%=      5-min Rain = 0
KPD2 182329Z 32017G32KT 09/00 A2968 RMK A01 T00920002  RH  053%=      5-min Rain = 0
KPD2 182330Z 34023G31KT 09/00 A2968 RMK A01 T008900-0  RH  054%=      5-min Rain = 0
KPD2 182331Z 34024G33KT 09/00 A2968 RMK A01 T008600-0  RH  055%=      5-min Rain = 0
KPD2 182332Z 35024G31KT 08/00 A2968 RMK A01 T00830000  RH  056%=      5-min Rain = 0
KPD2 182333Z 34015G22KT 08/00 A2968 RMK A01 T00810001  RH  057%=      5-min Rain = 0
KPD2 182334Z 34021G29KT 08/00 A2968 RMK A01 T00800001  RH  058%=      5-min Rain = 0
KPD2 182335Z 34020G26KT 08/00 A2968 RMK A01 T00790001  RH  058%=      5-min Rain = 0
KPD2 182336Z 33022G30KT 08/00 A2969 RMK A01 T00780001  RH  058%=      5-min Rain = 0
KPD2 182337Z 34023G30KT 08/00 A2969 RMK A01 T00760001  RH  059%=      5-min Rain = 0
KPD2 182338Z 33020G25KT 08/00 A2969 RMK A01 T00760001  RH  059%=      5-min Rain = 0
KPD2 182339Z 34023G29KT 07/00 A2969 RMK A01 T00740001  RH  060%=      5-min Rain = 0
KPD2 182340Z 34022G31KT 07/00 A297 RMK A01 T00730001  RH  060%=      5-min Rain = 0
KPD2 182341Z 34014G19KT 07/00 A297 RMK A01 T00720001  RH  061%=      5-min Rain = 0
KPD2 182342Z 34017G25KT 07/00 A297 RMK A01 T00720001  RH  061%=      5-min Rain = 0
KPD2 182343Z 34021G26KT 07/00 A2969 RMK A01 T007100-0  RH  060%=      5-min Rain = 0
KPD2 182344Z 34024G29KT 07/M00 A2969 RMK A01 T00701001  RH  060%=      5-min Rain = 0
KPD2 182345Z 34020G31KT 07/M00 A297 RMK A01 T00691001  RH  061%=      5-min Rain = 0
KPD2 182346Z 33016G24KT 07/M00 A297 RMK A01 T00691001  RH  061%=      5-min Rain = 0
KPD2 182347Z 33019G30KT 07/M00 A297 RMK A01 T00691001  RH  061%=      5-min Rain = 0
KPD2 182348Z 33020G31KT 07/M00 A297 RMK A01 T00681001  RH  061%=      5-min Rain = 0
KPD2 182349Z 34022G28KT 07/M00 A2971 RMK A01 T00671001  RH  062%=      5-min Rain = 0
KPD2 182350Z 34017KT 07/M00 A2971 RMK A01 T00671001  RH  062%=      5-min Rain = 0
KPD2 182351Z 34017KT 07/M00 A2971 RMK A01 T00661002  RH  062%=      5-min Rain = 0
KPD2 182352Z 34017G22KT 07/M00 A2971 RMK A01 T00661001  RH  062%=      5-min Rain = 0
KPD2 182353Z 32014G22KT 07/M00 A2971 RMK A01 T00651002  RH  062%=      5-min Rain = 0
KPD2 182354Z 34014G19KT 07/M00 A2972 RMK A01 T00651002  RH  063%=      5-min Rain = 0
KPD2 182355Z 33016G22KT 06/M00 A2972 RMK A01 T00641002  RH  062%=      5-min Rain = 0
KPD2 182356Z 33016G27KT 06/M00 A2972 RMK A01 T00631003  RH  062%=      5-min Rain = 0
KPD2 182357Z 32014G20KT 06/M00 A2972 RMK A01 T00631003  RH  063%=      5-min Rain = 0
KPD2 182358Z 33021KT 06/M00 A2972 RMK A01 T00631003  RH  063%=      5-min Rain = 0
KPD2 182359Z 33017KT 06/M00 A2972 RMK A01 T00621004  RH  063%=      5-min Rain = 0
KPD2 190000Z 34018G28KT 06/M01 A2972 RMK A01 T00611005  RH  063%=      5-min Rain = 0
KPD2 190001Z 34019G24KT 06/M01 A2973 RMK A01 T00601005  RH  063%=      5-min Rain = 0
KPD2 190002Z 34020G34KT 06/M01 A2973 RMK A01 T00591006  RH  063%=      5-min Rain = 0
KPD2 190003Z 33013G23KT 06/M01 A2973 RMK A01 T00581006  RH  064%=      5-min Rain = 0
KPD2 190004Z 34018G25KT 06/M01 A2973 RMK A01 T00571006  RH  064%=      5-min Rain = 0
KPD2 190005Z 33016G28KT 06/M01 A2973 RMK A01 T00571006  RH  064%=      5-min Rain = 0
KPD2 190006Z 32015G20KT 06/M01 A2973 RMK A01 T00561006  RH  064%=      5-min Rain = 0
KPD2 190007Z 33013G25KT 06/M01 A2974 RMK A01 T00561006  RH  065%=      5-min Rain = 0
KPD2 190008Z 33017G24KT 06/M01 A2974 RMK A01 T00561006  RH  065%=      5-min Rain = 0
KPD2 190009Z 33017G22KT 06/M01 A2974 RMK A01 T00551006  RH  065%=      5-min Rain = 0
KPD2 190010Z 33014G20KT 06/M01 A2974 RMK A01 T00551006  RH  065%=      5-min Rain = 0
KPD2 190011Z 34015G22KT 06/M01 A2974 RMK A01 T00551006  RH  065%=      5-min Rain = 0
KPD2 190012Z 33017G23KT 06/M01 A2974 RMK A01 T00551005  RH  065%=      5-min Rain = 0
KPD2 190013Z 33019G25KT 06/M01 A2975 RMK A01 T00551005  RH  065%=      5-min Rain = 0
KPD2 190014Z 32020G27KT 06/M01 A2975 RMK A01 T00561005  RH  065%=      5-min Rain = 0
KPD2 190015Z 33019G26KT 06/M01 A2975 RMK A01 T00561006  RH  065%=      5-min Rain = 0
KPD2 190016Z 34022G31KT 06/M01 A2975 RMK A01 T00561006  RH  064%=      5-min Rain = 0
KPD2 190017Z 33017KT 06/M01 A2975 RMK A01 T00561007  RH  064%=      5-min Rain = 0
KPD2 190018Z 33016G23KT 06/M01 A2975 RMK A01 T00561007  RH  064%=      5-min Rain = 0
KPD2 190019Z 32020G26KT 06/M01 A2975 RMK A01 T00561007  RH  064%=      5-min Rain = 0
KPD2 190020Z 33017KT 06/M01 A2976 RMK A01 T00551008  RH  064%=      5-min Rain = 0
KPD2 190021Z 34014KT 06/M01 A2976 RMK A01 T00551008  RH  064%=      5-min Rain = 0
KPD2 190022Z 33014KT 06/M01 A2976 RMK A01 T00551008  RH  064%=      5-min Rain = 0
KPD2 190023Z 32017G23KT 05/M01 A2976 RMK A01 T00541008  RH  064%=      5-min Rain = 0
KPD2 190024Z 33013G18KT 05/M01 A2977 RMK A01 T00541009  RH  064%=      5-min Rain = 0
KPD2 190025Z 33015G20KT 05/M01 A2977 RMK A01 T00541008  RH  064%=      5-min Rain = 0
KPD2 190026Z 34020G27KT 05/M01 A2977 RMK A01 T00531008  RH  065%=      5-min Rain = 0
KPD2 190027Z 34016G25KT 05/M01 A2978 RMK A01 T00521008  RH  065%=      5-min Rain = 0
KPD2 190028Z 33016G24KT 05/M01 A2978 RMK A01 T00521008  RH  065%=      5-min Rain = 0
KPD2 190029Z 34018G26KT 05/M01 A2978 RMK A01 T00511008  RH  065%=      5-min Rain = 0
KPD2 190030Z 34013G23KT 05/M01 A2978 RMK A01 T00511009  RH  065%=      5-min Rain = 0
KPD2 190031Z 32018G24KT 05/M01 A2978 RMK A01 T00511008  RH  065%=      5-min Rain = 0
KPD2 190032Z 34018G25KT 05/M01 A2978 RMK A01 T00511009  RH  065%=      5-min Rain = 0
KPD2 190033Z 34013G21KT 05/M01 A2978 RMK A01 T00511009  RH  065%=      5-min Rain = 0
KPD2 190034Z 34016G25KT 05/M01 A2979 RMK A01 T00511009  RH  065%=      5-min Rain = 0
KPD2 190035Z 34018G24KT 05/M01 A2979 RMK A01 T00501009  RH  066%=      5-min Rain = 0
KPD2 190036Z 34012KT 05/M01 A2979 RMK A01 T00501009  RH  066%=      5-min Rain = 0
KPD2 190037Z 34011G17KT 05/M01 A2979 RMK A01 T00501009  RH  066%=      5-min Rain = 0
KPD2 190038Z 32011G19KT 05/M01 A2979 RMK A01 T00501009  RH  066%=      5-min Rain = 0
KPD2 190039Z 32013KT 05/M01 A2979 RMK A01 T00501009  RH  066%=      5-min Rain = 0
KPD2 190040Z 34018G27KT 05/M01 A2979 RMK A01 T00501009  RH  066%=      5-min Rain = 0
KPD2 190041Z 34018G24KT 05/M01 A2979 RMK A01 T00491009  RH  066%=      5-min Rain = 0
KPD2 190042Z 33014G20KT 05/M01 A298 RMK A01 T00481009  RH  066%=      5-min Rain = 0
KPD2 190043Z 34017G24KT 05/M01 A298 RMK A01 T00481009  RH  067%=      5-min Rain = 0
KPD2 190044Z 34015G24KT 05/M01 A298 RMK A01 T00481008  RH  067%=      5-min Rain = 0
KPD2 190045Z 34014KT 05/M01 A298 RMK A01 T00481008  RH  067%=      5-min Rain = 0
KPD2 190046Z 33012KT 05/M01 A298 RMK A01 T00481008  RH  067%=      5-min Rain = 0
KPD2 190047Z 33014KT 05/M01 A298 RMK A01 T00481008  RH  067%=      5-min Rain = 0
KPD2 190048Z 32013KT 05/M01 A298 RMK A01 T00481008  RH  067%=      5-min Rain = 0
KPD2 190049Z 32015G20KT 05/M01 A2981 RMK A01 T00481008  RH  067%=      5-min Rain = 0
KPD2 190050Z 33015G20KT 05/M01 A298 RMK A01 T00481008  RH  067%=      5-min Rain = 0
KPD2 190051Z 33023G30KT 05/M01 A298 RMK A01 T00491007  RH  067%=      5-min Rain = 0
KPD2 190052Z 33022G28KT 05/M01 A2981 RMK A01 T00491006  RH  067%=      5-min Rain = 0
KPD2 190053Z 33012G17KT 05/M01 A2981 RMK A01 T00491006  RH  068%=      5-min Rain = 0
KPD2 190054Z 33016G23KT 05/M01 A2981 RMK A01 T00491006  RH  068%=      5-min Rain = 0
KPD2 190055Z 32017KT 05/M01 A2981 RMK A01 T00491007  RH  067%=      5-min Rain = 0
KPD2 190056Z 33014G24KT 05/M01 A2981 RMK A01 T00491007  RH  067%=      5-min Rain = 0
KPD2 190057Z 31016G21KT 05/M01 A2981 RMK A01 T00481007  RH  067%=      5-min Rain = 0
KPD2 190058Z 34018G27KT 05/M01 A2982 RMK A01 T00481007  RH  067%=      5-min Rain = 0
KPD2 190059Z 33014G24KT 05/M01 A2982 RMK A01 T00481008  RH  067%=      5-min Rain = 0
KPD2 190100Z 33019G25KT 05/M01 A2982 RMK A01 T00471009  RH  067%=      5-min Rain = 0
KPD2 190101Z 33019G26KT 05/M01 A2982 RMK A01 T00471009  RH  067%=      5-min Rain = 0
KPD2 190102Z 32012G17KT 05/M01 A2983 RMK A01 T00471009  RH  067%=      5-min Rain = 0
KPD2 190103Z 35014G22KT 05/M01 A2983 RMK A01 T00461009  RH  067%=      5-min Rain = 0
KPD2 190104Z 33013G20KT 05/M01 A2983 RMK A01 T00461010  RH  067%=      5-min Rain = 0
KPD2 190105Z 32014G20KT 05/M01 A2983 RMK A01 T00451010  RH  067%=      5-min Rain = 0
KPD2 190106Z 34014G19KT 05/M01 A2983 RMK A01 T00451010  RH  068%=      5-min Rain = 0
KPD2 190107Z 34021G31KT 04/M01 A2983 RMK A01 T00441010  RH  068%=      5-min Rain = 0
KPD2 190108Z 35015G23KT 04/M01 A2984 RMK A01 T00431011  RH  068%=      5-min Rain = 0
KPD2 190109Z 35012G20KT 04/M01 A2984 RMK A01 T00431011  RH  068%=      5-min Rain = 0
KPD2 190110Z 32017G26KT 04/M01 A2984 RMK A01 T00421011  RH  068%=      5-min Rain = 0
KPD2 190111Z 33015G23KT 04/M01 A2984 RMK A01 T00421010  RH  069%=      5-min Rain = 0
KPD2 190112Z 33014G21KT 04/M01 A2984 RMK A01 T00421010  RH  069%=      5-min Rain = 0
KPD2 190113Z 33010KT 04/M01 A2984 RMK A01 T00421010  RH  069%=      5-min Rain = 0
KPD2 190114Z 33013KT 04/M01 A2984 RMK A01 T00421010  RH  069%=      5-min Rain = 0
KPD2 190115Z 32017G23KT 04/M01 A2984 RMK A01 T00421010  RH  069%=      5-min Rain = 0
KPD2 190116Z 33014G20KT 04/M01 A2985 RMK A01 T00421011  RH  069%=      5-min Rain = 0
KPD2 190117Z 33014G20KT 04/M01 A2985 RMK A01 T00421011  RH  069%=      5-min Rain = 0
KPD2 190118Z 33017G23KT 04/M01 A2985 RMK A01 T00421011  RH  069%=      5-min Rain = 0
KPD2 190119Z 32017G24KT 04/M01 A2985 RMK A01 T00411011  RH  069%=      5-min Rain = 0
KPD2 190120Z 33016KT 04/M01 A2985 RMK A01 T00411011  RH  069%=      5-min Rain = 0
KPD2 190121Z 34017G24KT 04/M01 A2985 RMK A01 T00411011  RH  069%=      5-min Rain = 0
KPD2 190122Z 33013G20KT 04/M01 A2986 RMK A01 T00401011  RH  069%=      5-min Rain = 0
KPD2 190123Z 33019G26KT 04/M01 A2986 RMK A01 T00401011  RH  069%=      5-min Rain = 0
KPD2 190124Z 32011KT 04/M01 A2986 RMK A01 T00391012  RH  069%=      5-min Rain = 0
KPD2 190125Z 32014G20KT 04/M01 A2986 RMK A01 T00391012  RH  069%=      5-min Rain = 0
KPD2 190126Z 33020G25KT 04/M01 A2986 RMK A01 T00391012  RH  069%=      5-min Rain = 0
KPD2 190127Z 33017G24KT 04/M01 A2986 RMK A01 T00381013  RH  069%=      5-min Rain = 0
KPD2 190128Z 33018G26KT 04/M01 A2986 RMK A01 T00381013  RH  069%=      5-min Rain = 0
KPD2 190129Z 33018G26KT 04/M01 A2986 RMK A01 T00371014  RH  070%=      5-min Rain = 0
KPD2 190130Z 32016G25KT 04/M01 A2986 RMK A01 T00371014  RH  070%=      5-min Rain = 0
KPD2 190131Z 32018G24KT 04/M01 A2986 RMK A01 T00361014  RH  070%=      5-min Rain = 0
KPD2 190132Z 33016G23KT 04/M02 A2986 RMK A01 T00361015  RH  069%=      5-min Rain = 0
KPD2 190133Z 34014KT 04/M02 A2986 RMK A01 T00361015  RH  069%=      5-min Rain = 0
KPD2 190134Z 32012G21KT 04/M02 A2986 RMK A01 T00361016  RH  069%=      5-min Rain = 0
KPD2 190135Z 31019G27KT 04/M02 A2986 RMK A01 T00361016  RH  069%=      5-min Rain = 0
KPD2 190136Z 31018G23KT 04/M02 A2986 RMK A01 T00361016  RH  069%=      5-min Rain = 0
KPD2 190137Z 31017G23KT 04/M02 A2987 RMK A01 T00361016  RH  069%=      5-min Rain = 0
KPD2 190138Z 32022KT 04/M02 A2986 RMK A01 T00361016  RH  069%=      5-min Rain = 0
KPD2 190139Z 33015G21KT 04/M02 A2987 RMK A01 T00361016  RH  069%=      5-min Rain = 0
KPD2 190140Z 33015KT 04/M02 A2987 RMK A01 T00351016  RH  069%=      5-min Rain = 0
KPD2 190141Z 33012G19KT 04/M02 A2987 RMK A01 T00361016  RH  069%=      5-min Rain = 0
KPD2 190142Z 33016G23KT 04/M02 A2987 RMK A01 T00361017  RH  068%=      5-min Rain = 0
KPD2 190143Z 33014G20KT 04/M02 A2987 RMK A01 T00361018  RH  068%=      5-min Rain = 0
KPD2 190144Z 31010KT 04/M02 A2987 RMK A01 T00361017  RH  068%=      5-min Rain = 0
KPD2 190145Z 32014G25KT 04/M02 A2987 RMK A01 T00361017  RH  068%=      5-min Rain = 0
KPD2 190146Z 32015KT 04/M02 A2988 RMK A01 T00351017  RH  068%=      5-min Rain = 0
KPD2 190147Z 33014G22KT 04/M02 A2988 RMK A01 T00361018  RH  068%=      5-min Rain = 0
KPD2 190148Z 33016G22KT 04/M02 A2988 RMK A01 T00361018  RH  068%=      5-min Rain = 0
KPD2 190149Z 33017G24KT 04/M02 A2988 RMK A01 T00361018  RH  067%=      5-min Rain = 0
KPD2 190150Z 34020G27KT 04/M02 A2988 RMK A01 T00361019  RH  067%=      5-min Rain = 0
KPD2 190151Z 33015KT 04/M02 A2988 RMK A01 T00361018  RH  067%=      5-min Rain = 0
KPD2 190152Z 32012KT 04/M02 A2988 RMK A01 T00361019  RH  068%=      5-min Rain = 0
KPD2 190153Z 34016G24KT 04/M02 A2988 RMK A01 T00361018  RH  068%=      5-min Rain = 0
KPD2 190154Z 33016G27KT 04/M02 A2988 RMK A01 T00361018  RH  068%=      5-min Rain = 0
KPD2 190155Z 32023G34KT 04/M02 A2988 RMK A01 T00361019  RH  067%=      5-min Rain = 0
KPD2 190156Z 33021G26KT 04/M02 A2988 RMK A01 T00361020  RH  067%=      5-min Rain = 0
KPD2 190157Z 33024KT 04/M02 A2988 RMK A01 T00361020  RH  067%=      5-min Rain = 0
KPD2 190158Z 32021G31KT 04/M02 A2988 RMK A01 T00351020  RH  067%=      5-min Rain = 0
KPD2 190159Z 32018G23KT 04/M02 A2988 RMK A01 T00351019  RH  068%=      5-min Rain = 0
KPD2 190200Z 33018G30KT 04/M02 A2988 RMK A01 T00351018  RH  068%=      5-min Rain = 0
KPD2 190201Z 33016G23KT 04/M02 A2988 RMK A01 T00351019  RH  068%=      5-min Rain = 0
KPD2 190202Z 33019G25KT 03/M02 A2989 RMK A01 T00341019  RH  068%=      5-min Rain = 0
KPD2 190203Z 32014G19KT 03/M02 A2989 RMK A01 T00341019  RH  068%=      5-min Rain = 0
KPD2 190204Z 32018G31KT 03/M02 A2989 RMK A01 T00331020  RH  068%=      5-min Rain = 0
KPD2 190205Z 33017G28KT 03/M02 A2989 RMK A01 T00331020  RH  068%=      5-min Rain = 0
KPD2 190206Z 33013G19KT 03/M02 A2989 RMK A01 T00331020  RH  068%=      5-min Rain = 0
KPD2 190207Z 31019G26KT 03/M02 A2989 RMK A01 T00331021  RH  068%=      5-min Rain = 0
KPD2 190208Z 32017G25KT 03/M02 A2989 RMK A01 T00331021  RH  068%=      5-min Rain = 0
KPD2 190209Z 33018G25KT 03/M02 A2989 RMK A01 T00321022  RH  068%=      5-min Rain = 0
KPD2 190210Z 33016G24KT 03/M02 A2989 RMK A01 T00321022  RH  067%=      5-min Rain = 0
KPD2 190211Z 33020KT 03/M02 A2989 RMK A01 T00321023  RH  067%=      5-min Rain = 0
KPD2 190212Z 33020G26KT 03/M02 A299 RMK A01 T00321023  RH  067%=      5-min Rain = 0
KPD2 190213Z 32017G23KT 03/M02 A299 RMK A01 T00321023  RH  067%=      5-min Rain = 0
KPD2 190214Z 33016G25KT 03/M02 A299 RMK A01 T00311023  RH  067%=      5-min Rain = 0
KPD2 190215Z 33019G28KT 03/M02 A299 RMK A01 T00311023  RH  068%=      5-min Rain = 0
KPD2 190216Z 33018G26KT 03/M02 A299 RMK A01 T00311022  RH  068%=      5-min Rain = 0
KPD2 190217Z 33017G22KT 03/M02 A299 RMK A01 T00311022  RH  069%=      5-min Rain = 0
KPD2 190218Z 33017G23KT 03/M02 A299 RMK A01 T00301021  RH  069%=      5-min Rain = 0
KPD2 190219Z 32016G22KT 03/M02 A299 RMK A01 T00301021  RH  069%=      5-min Rain = 0
KPD2 190220Z 32013G24KT 03/M02 A299 RMK A01 T00301021  RH  069%=      5-min Rain = 0
KPD2 190221Z 32019G28KT 03/M02 A299 RMK A01 T00301020  RH  070%=      5-min Rain = 0
KPD2 190222Z 32017G22KT 03/M02 A299 RMK A01 T00301020  RH  070%=      5-min Rain = 0
KPD2 190223Z 33017G23KT 03/M02 A299 RMK A01 T00301020  RH  070%=      5-min Rain = 0
KPD2 190224Z 33018G30KT 03/M02 A299 RMK A01 T00301020  RH  070%=      5-min Rain = 0
KPD2 190225Z 33027G34KT 03/M02 A299 RMK A01 T00301020  RH  070%=      5-min Rain = 0
KPD2 190226Z 33019G25KT 03/M02 A299 RMK A01 T00291020  RH  070%=      5-min Rain = 0
KPD2 190227Z 32021G28KT 03/M02 A299 RMK A01 T00291020  RH  070%=      5-min Rain = 0
KPD2 190228Z 32011G16KT 03/M02 A299 RMK A01 T00291019  RH  071%=      5-min Rain = 0
KPD2 190229Z 32013G21KT 03/M02 A2991 RMK A01 T00291019  RH  071%=      5-min Rain = 0
KPD2 190230Z 32020G25KT 03/M02 A299 RMK A01 T00291019  RH  071%=      5-min Rain = 0
KPD2 190231Z 33014G23KT 03/M02 A2991 RMK A01 T00291019  RH  071%=      5-min Rain = 0
KPD2 190232Z 33016KT 03/M02 A2991 RMK A01 T00291019  RH  071%=      5-min Rain = 0
KPD2 190233Z 32018KT 03/M02 A2991 RMK A01 T00291019  RH  071%=      5-min Rain = 0
KPD2 190234Z 32016G27KT 03/M02 A2991 RMK A01 T00291019  RH  071%=      5-min Rain = 0
KPD2 190235Z 32019KT 03/M02 A2991 RMK A01 T00291019  RH  071%=      5-min Rain = 0
KPD2 190236Z 33020G27KT 03/M02 A2991 RMK A01 T00291019  RH  071%=      5-min Rain = 0
KPD2 190237Z 34016G28KT 03/M02 A2991 RMK A01 T00291019  RH  071%=      5-min Rain = 0
KPD2 190238Z 33016G24KT 03/M02 A2991 RMK A01 T00291019  RH  071%=      5-min Rain = 0
KPD2 190239Z 32016G24KT 03/M02 A2991 RMK A01 T00291019  RH  071%=      5-min Rain = 0
KPD2 190240Z 32022G30KT 03/M02 A2991 RMK A01 T00291019  RH  071%=      5-min Rain = 0
KPD2 190241Z 33015G21KT 03/M02 A2991 RMK A01 T00281019  RH  071%=      5-min Rain = 0
KPD2 190242Z 31020G26KT 03/M02 A2992 RMK A01 T00281019  RH  071%=      5-min Rain = 0
KPD2 190243Z 32018G26KT 03/M02 A2992 RMK A01 T00281019  RH  071%=      5-min Rain = 0
KPD2 190244Z 33015KT 03/M02 A2992 RMK A01 T00281019  RH  071%=      5-min Rain = 0
KPD2 190245Z 33014G19KT 03/M02 A2992 RMK A01 T00281019  RH  072%=      5-min Rain = 0
KPD2 190246Z 33016G23KT 03/M02 A2992 RMK A01 T00281018  RH  072%=      5-min Rain = 0
KPD2 190247Z 34015G23KT 03/M02 A2992 RMK A01 T00271018  RH  072%=      5-min Rain = 0
KPD2 190248Z 34018G27KT 03/M02 A2992 RMK A01 T00271018  RH  073%=      5-min Rain = 0
KPD2 190249Z 32015G23KT 03/M02 A2992 RMK A01 T00271018  RH  073%=      5-min Rain = 0
KPD2 190250Z 32019G26KT 03/M02 A2992 RMK A01 T00261018  RH  073%=      5-min Rain = 0
KPD2 190251Z 32014G21KT 03/M02 A2992 RMK A01 T00261017  RH  073%=      5-min Rain = 0
KPD2 190252Z 32013G18KT 03/M02 A2992 RMK A01 T00261018  RH  073%=      5-min Rain = 0
KPD2 190253Z 32015G24KT 03/M02 A2992 RMK A01 T00261017  RH  073%=      5-min Rain = 0
KPD2 190254Z 32018G23KT 03/M02 A2992 RMK A01 T00261017  RH  073%=      5-min Rain = 0
KPD2 190255Z 33020G30KT 03/M02 A2992 RMK A01 T00261017  RH  074%=      5-min Rain = 0
KPD2 190256Z 32019KT 03/M02 A2992 RMK A01 T00261016  RH  074%=      5-min Rain = 0
KPD2 190257Z 32013G18KT 03/M02 A2992 RMK A01 T00251016  RH  074%=      5-min Rain = 0
KPD2 190258Z 33014G19KT 03/M02 A2992 RMK A01 T00251016  RH  074%=      5-min Rain = 0
KPD2 190259Z 32013G19KT 03/M02 A2993 RMK A01 T00251015  RH  075%=      5-min Rain = 0
KPD2 190300Z 31011G16KT 03/M02 A2993 RMK A01 T00251015  RH  075%=      5-min Rain = 0
KPD2 190301Z 31011G17KT 03/M01 A2993 RMK A01 T00251013  RH  076%=      5-min Rain = 0
KPD2 190302Z 31014G19KT 02/M01 A2992 RMK A01 T00241012  RH  077%=      5-min Rain = 0
KPD2 190303Z 33020G27KT 02/M01 A2993 RMK A01 T00231013  RH  077%=      5-min Rain = 0
KPD2 190304Z 32021G27KT 02/M01 A2993 RMK A01 T00221014  RH  077%=      5-min Rain = 0
KPD2 190305Z 33019G26KT 02/M01 A2993 RMK A01 T00211014  RH  078%=      5-min Rain = 0
KPD2 190306Z 32012G18KT 02/M01 A2993 RMK A01 T00211014  RH  078%=      5-min Rain = 0
KPD2 190307Z 32016G23KT 02/M01 A2993 RMK A01 T00201014  RH  078%=      5-min Rain = 0
KPD2 190308Z 32020G27KT 02/M01 A2993 RMK A01 T00201014  RH  078%=      5-min Rain = 0
KPD2 190309Z 32020G27KT 02/M02 A2993 RMK A01 T00201015  RH  078%=      5-min Rain = 0
KPD2 190310Z 32015G21KT 02/M02 A2994 RMK A01 T00191015  RH  078%=      5-min Rain = 0
KPD2 190311Z 30018G28KT 02/M02 A2993 RMK A01 T00191015  RH  078%=      5-min Rain = 0
KPD2 190312Z 32021G27KT 02/M02 A2994 RMK A01 T00191018  RH  077%=      5-min Rain = 0
KPD2 190313Z 32015G22KT 02/M02 A2994 RMK A01 T00191019  RH  076%=      5-min Rain = 0
KPD2 190314Z 32017KT 02/M02 A2994 RMK A01 T00201020  RH  075%=      5-min Rain = 0
KPD2 190315Z 31022G28KT 02/M02 A2994 RMK A01 T00201021  RH  075%=      5-min Rain = 0
KPD2 190316Z 33021G27KT 02/M02 A2994 RMK A01 T00201022  RH  074%=      5-min Rain = 0
KPD2 190317Z 33018G29KT 02/M02 A2994 RMK A01 T00201023  RH  074%=      5-min Rain = 0
KPD2 190318Z 34019G27KT 02/M02 A2994 RMK A01 T00201023  RH  073%=      5-min Rain = 0
KPD2 190319Z 32015G22KT 02/M02 A2994 RMK A01 T00201023  RH  073%=      5-min Rain = 0
KPD2 190320Z 32017KT 02/M02 A2994 RMK A01 T00201023  RH  073%=      5-min Rain = 0
KPD2 190321Z 32022G29KT 02/M02 A2994 RMK A01 T00201023  RH  073%=      5-min Rain = 0
KPD2 190322Z 32016G25KT 02/M02 A2994 RMK A01 T00201023  RH  073%=      5-min Rain = 0
KPD2 190323Z 32015KT 02/M02 A2995 RMK A01 T00201023  RH  073%=      5-min Rain = 0
KPD2 190324Z 33018KT 02/M02 A2995 RMK A01 T00201023  RH  073%=      5-min Rain = 0
KPD2 190325Z 31014KT 02/M02 A2995 RMK A01 T00201023  RH  073%=      5-min Rain = 0
KPD2 190326Z 33016G22KT 02/M02 A2995 RMK A01 T00201023  RH  073%=      5-min Rain = 0
KPD2 190327Z 32014G21KT 02/M02 A2995 RMK A01 T00201024  RH  073%=      5-min Rain = 0
KPD2 190328Z 33015G21KT 02/M03 A2995 RMK A01 T00201025  RH  072%=      5-min Rain = 0
KPD2 190329Z 34015G21KT 02/M03 A2995 RMK A01 T00201025  RH  072%=      5-min Rain = 0
KPD2 190330Z 33015G21KT 02/M03 A2995 RMK A01 T00201025  RH  072%=      5-min Rain = 0
KPD2 190331Z 32017G22KT 02/M03 A2996 RMK A01 T00201026  RH  072%=      5-min Rain = 0
KPD2 190332Z 32017G24KT 02/M03 A2996 RMK A01 T00201027  RH  071%=      5-min Rain = 0
KPD2 190333Z 32018G24KT 02/M03 A2996 RMK A01 T00201027  RH  071%=      5-min Rain = 0
KPD2 190334Z 31020G28KT 02/M03 A2996 RMK A01 T00201027  RH  071%=      5-min Rain = 0
KPD2 190335Z 33018G26KT 02/M03 A2996 RMK A01 T00201028  RH  071%=      5-min Rain = 0
KPD2 190336Z 33023G34KT 02/M03 A2996 RMK A01 T00201028  RH  070%=      5-min Rain = 0
KPD2 190337Z 32015G22KT 02/M03 A2996 RMK A01 T00201028  RH  070%=      5-min Rain = 0
KPD2 190338Z 32018G26KT 02/M03 A2996 RMK A01 T00201028  RH  070%=      5-min Rain = 0
KPD2 190339Z 32019G29KT 02/M03 A2996 RMK A01 T00201029  RH  070%=      5-min Rain = 0
KPD2 190340Z 33019G26KT 02/M03 A2997 RMK A01 T00201028  RH  070%=      5-min Rain = 0
KPD2 190341Z 31018G23KT 02/M03 A2997 RMK A01 T00201028  RH  070%=      5-min Rain = 0
KPD2 190342Z 32016G23KT 02/M03 A2997 RMK A01 T00201028  RH  071%=      5-min Rain = 0
KPD2 190343Z 31017G24KT 02/M03 A2997 RMK A01 T00201028  RH  071%=      5-min Rain = 0
KPD2 190344Z 31017G23KT 02/M03 A2996 RMK A01 T00201027  RH  071%=      5-min Rain = 0
KPD2 190345Z 32015G25KT 02/M03 A2997 RMK A01 T00201027  RH  071%=      5-min Rain = 0
KPD2 190346Z 34018G23KT 02/M03 A2997 RMK A01 T00201027  RH  071%=      5-min Rain = 0
KPD2 190347Z 33016G25KT 02/M03 A2997 RMK A01 T00201027  RH  071%=      5-min Rain = 0
KPD2 190348Z 31014G20KT 02/M03 A2997 RMK A01 T00191027  RH  071%=      5-min Rain = 0
KPD2 190349Z 32016G28KT 02/M03 A2997 RMK A01 T00201027  RH  071%=      5-min Rain = 0
KPD2 190350Z 32019G31KT 02/M03 A2997 RMK A01 T00191027  RH  071%=      5-min Rain = 0
KPD2 190351Z 31018G23KT 02/M03 A2997 RMK A01 T00191027  RH  072%=      5-min Rain = 0
KPD2 190352Z 31019G26KT 02/M03 A2997 RMK A01 T00191026  RH  072%=      5-min Rain = 0
KPD2 190353Z 31018G25KT 02/M03 A2997 RMK A01 T00191026  RH  072%=      5-min Rain = 0
KPD2 190354Z 32020G25KT 02/M03 A2997 RMK A01 T00191025  RH  073%=      5-min Rain = 0
KPD2 190355Z 33018KT 02/M02 A2997 RMK A01 T00191024  RH  073%=      5-min Rain = 0
KPD2 190356Z 31015KT 02/M02 A2997 RMK A01 T00191024  RH  073%=      5-min Rain = 0
KPD2 190357Z 32017G24KT 02/M02 A2998 RMK A01 T00181023  RH  074%=      5-min Rain = 0
KPD2 190358Z 32018KT 02/M02 A2998 RMK A01 T00181022  RH  075%=      5-min Rain = 0
KPD2 190359Z 32017G24KT 02/M02 A2998 RMK A01 T00181021  RH  075%=      5-min Rain = 0
KPD2 190400Z 32021G27KT 02/M02 A2998 RMK A01 T00171020  RH  076%=      5-min Rain = 0
KPD2 190401Z 32017G24KT 02/M02 A2998 RMK A01 T00171020  RH  077%=      5-min Rain = 0
KPD2 190402Z 32020G25KT 02/M02 A2998 RMK A01 T00161020  RH  077%=      5-min Rain = 0
KPD2 190403Z 31015G21KT 02/M02 A2998 RMK A01 T00161020  RH  077%=      5-min Rain = 0
KPD2 190404Z 32014G19KT 02/M02 A2998 RMK A01 T00151019  RH  078%=      5-min Rain = 0
KPD2 190405Z 32017G23KT 02/M02 A2999 RMK A01 T00161019  RH  078%=      5-min Rain = 0
KPD2 190406Z 32015G23KT 02/M02 A2999 RMK A01 T00151019  RH  078%=      5-min Rain = 0
KPD2 190407Z 32018G26KT 02/M02 A2999 RMK A01 T00151019  RH  078%=      5-min Rain = 0
KPD2 190408Z 32017G22KT 02/M02 A2999 RMK A01 T00151018  RH  078%=      5-min Rain = 0
KPD2 190409Z 31018KT 02/M02 A2999 RMK A01 T00151018  RH  079%=      5-min Rain = 0
KPD2 190410Z 32015G21KT 02/M02 A2999 RMK A01 T00151018  RH  079%=      5-min Rain = 0
KPD2 190411Z 32017G22KT 01/M02 A30 RMK A01 T00141018  RH  079%=      5-min Rain = 0
KPD2 190412Z 32021KT 01/M02 A2999 RMK A01 T00141017  RH  080%=      5-min Rain = 0
KPD2 190413Z 33019KT 01/M02 A30 RMK A01 T00131017  RH  080%=      5-min Rain = 0
KPD2 190414Z 32013G18KT 01/M02 A30 RMK A01 T00131017  RH  081%=      5-min Rain = 0
KPD2 190415Z 32017G26KT 01/M02 A30 RMK A01 T00121016  RH  081%=      5-min Rain = 0
KPD2 190416Z 32016G24KT 01/M02 A30 RMK A01 T00121016  RH  082%=      5-min Rain = 0
KPD2 190417Z 33016G21KT 01/M02 A30 RMK A01 T00121016  RH  082%=      5-min Rain = 0
KPD2 190418Z 31014G21KT 01/M02 A30 RMK A01 T00121016  RH  082%=      5-min Rain = 0
KPD2 190419Z 31014G19KT 01/M02 A30 RMK A01 T00121016  RH  082%=      5-min Rain = 0
KPD2 190420Z 32013G20KT 01/M02 A30 RMK A01 T00121016  RH  081%=      5-min Rain = 0
KPD2 190421Z 32010G17KT 01/M02 A30 RMK A01 T00121016  RH  081%=      5-min Rain = 0
KPD2 190422Z 31013G20KT 01/M02 A30 RMK A01 T00121016  RH  081%=      5-min Rain = 0
KPD2 190423Z 31012G17KT 01/M02 A3001 RMK A01 T00121016  RH  081%=      5-min Rain = 0
KPD2 190424Z 32015G20KT 01/M02 A3001 RMK A01 T00121016  RH  081%=      5-min Rain = 0
KPD2 190425Z 32013G19KT 01/M02 A3001 RMK A01 T00121017  RH  081%=      5-min Rain = 0
KPD2 190426Z 31016G27KT 01/M02 A3001 RMK A01 T00121016  RH  081%=      5-min Rain = 0
KPD2 190427Z 32022G27KT 01/M02 A3001 RMK A01 T00121018  RH  081%=      5-min Rain = 0
KPD2 190428Z 34019G24KT 01/M02 A3001 RMK A01 T00111018  RH  080%=      5-min Rain = 0
KPD2 190429Z 31013G22KT 01/M02 A3001 RMK A01 T00111019  RH  081%=      5-min Rain = 0
KPD2 190430Z 31013KT 01/M02 A3001 RMK A01 T00101019  RH  081%=      5-min Rain = 0
KPD2 190431Z 33013KT 01/M02 A3001 RMK A01 T00101018  RH  081%=      5-min Rain = 0
KPD2 190432Z 33012G18KT 01/M02 A3001 RMK A01 T00091018  RH  082%=      5-min Rain = 0
KPD2 190433Z 31014KT 01/M02 A3001 RMK A01 T00091018  RH  083%=      5-min Rain = 0
KPD2 190434Z 31016KT 01/M02 A3001 RMK A01 T00081018  RH  083%=      5-min Rain = 0
KPD2 190435Z 32015G22KT 01/M02 A3001 RMK A01 T00081018  RH  083%=      5-min Rain = 0
KPD2 190436Z 32012G17KT 01/M02 A3001 RMK A01 T00071018  RH  083%=      5-min Rain = 0
KPD2 190437Z 31014G19KT 01/M02 A3002 RMK A01 T00081018  RH  083%=      5-min Rain = 0
KPD2 190438Z 32014G20KT 01/M02 A3002 RMK A01 T00071017  RH  084%=      5-min Rain = 0
KPD2 190439Z 33017G24KT 01/M02 A3002 RMK A01 T00071017  RH  084%=      5-min Rain = 0
KPD2 190440Z 32012G18KT 01/M02 A3002 RMK A01 T00071018  RH  083%=      5-min Rain = 0
KPD2 190441Z 31017G23KT 01/M02 A3002 RMK A01 T00071017  RH  084%=      5-min Rain = 0
KPD2 190442Z 31014G19KT 01/M02 A3002 RMK A01 T00071018  RH  083%=      5-min Rain = 0
KPD2 190443Z 32017G24KT 01/M02 A3002 RMK A01 T00071017  RH  084%=      5-min Rain = 0
KPD2 190444Z 33018G26KT 01/M02 A3002 RMK A01 T00071017  RH  084%=      5-min Rain = 0
KPD2 190445Z 32014G22KT 01/M02 A3002 RMK A01 T00071017  RH  084%=      5-min Rain = 0
KPD2 190446Z 33012G17KT 01/M02 A3002 RMK A01 T00071017  RH  084%=      5-min Rain = 0
KPD2 190447Z 33014G19KT 01/M02 A3002 RMK A01 T00071016  RH  084%=      5-min Rain = 0
KPD2 190448Z 31014KT 01/M02 A3002 RMK A01 T00071016  RH  084%=      5-min Rain = 0
KPD2 190449Z 32013G20KT 01/M02 A3002 RMK A01 T00071016  RH  085%=      5-min Rain = 0
KPD2 190450Z 32012KT 01/M02 A3003 RMK A01 T00071016  RH  085%=      5-min Rain = 0
KPD2 190451Z 32014G19KT 01/M02 A3002 RMK A01 T00071016  RH  085%=      5-min Rain = 0
KPD2 190452Z 31011KT 01/M02 A3002 RMK A01 T00071016  RH  085%=      5-min Rain = 0
KPD2 190453Z 31010KT 01/M02 A3002 RMK A01 T00071015  RH  085%=      5-min Rain = 0
KPD2 190454Z 32012G18KT 01/M02 A3002 RMK A01 T00071015  RH  086%=      5-min Rain = 0
KPD2 190455Z 31012G18KT 01/M02 A3002 RMK A01 T00071015  RH  086%=      5-min Rain = 0
KPD2 190456Z 31014G19KT 01/M01 A3003 RMK A01 T00071014  RH  086%=      5-min Rain = 0
KPD2 190457Z 32010KT 01/M02 A3003 RMK A01 T00071015  RH  086%=      5-min Rain = 0
KPD2 190458Z 31010KT 01/M01 A3003 RMK A01 T00071014  RH  086%=      5-min Rain = 0
KPD2 190459Z 30010KT 01/M01 A3003 RMK A01 T00071014  RH  086%=      5-min Rain = 0
KPD2 190500Z 30009KT 01/M01 A3003 RMK A01 T00071014  RH  086%=      5-min Rain = 0
KPD2 190501Z 32011KT 01/M01 A3003 RMK A01 T00071013  RH  087%=      5-min Rain = 0
KPD2 190502Z 31012G18KT 01/M01 A3003 RMK A01 T00071013  RH  087%=      5-min Rain = 0
KPD2 190503Z 31014KT 01/M01 A3003 RMK A01 T00071013  RH  087%=      5-min Rain = 0
KPD2 190504Z 32011KT 01/M01 A3003 RMK A01 T00071013  RH  087%=      5-min Rain = 0
KPD2 190505Z 31013KT 01/M01 A3003 RMK A01 T00071013  RH  087%=      5-min Rain = 0
KPD2 190506Z 31012KT 01/M01 A3004 RMK A01 T00071013  RH  087%=      5-min Rain = 0
KPD2 190507Z 31011G16KT 01/M01 A3004 RMK A01 T00071013  RH  087%=      5-min Rain = 0
KPD2 190508Z 31012KT 01/M01 A3004 RMK A01 T00071013  RH  087%=      5-min Rain = 0
KPD2 190509Z 32013G19KT 01/M01 A3004 RMK A01 T00071013  RH  087%=      5-min Rain = 0
KPD2 190510Z 32014G19KT 01/M01 A3004 RMK A01 T00071013  RH  087%=      5-min Rain = 0
KPD2 190511Z 31013G20KT 01/M01 A3004 RMK A01 T00071013  RH  086%=      5-min Rain = 0
KPD2 190512Z 32014G19KT 01/M01 A3004 RMK A01 T00071013  RH  086%=      5-min Rain = 0
KPD2 190513Z 33012G22KT 01/M01 A3004 RMK A01 T00071013  RH  086%=      5-min Rain = 0
KPD2 190514Z 31011KT 01/M01 A3004 RMK A01 T00071013  RH  086%=      5-min Rain = 0
KPD2 190515Z 34010G17KT 01/M01 A3005 RMK A01 T00071013  RH  086%=      5-min Rain = 0
KPD2 190516Z 31012G18KT 01/M01 A3004 RMK A01 T00071013  RH  086%=      5-min Rain = 0
KPD2 190517Z 31011G19KT 01/M01 A3004 RMK A01 T00071014  RH  086%=      5-min Rain = 0
KPD2 190518Z 32013G18KT 01/M01 A3005 RMK A01 T00071013  RH  086%=      5-min Rain = 0
KPD2 190519Z 31013G19KT 01/M01 A3004 RMK A01 T00071013  RH  086%=      5-min Rain = 0
KPD2 190520Z 34015KT 01/M01 A3005 RMK A01 T00061014  RH  086%=      5-min Rain = 0
KPD2 190521Z 31013G18KT 01/M01 A3005 RMK A01 T00071014  RH  086%=      5-min Rain = 0
KPD2 190522Z 31011KT 01/M02 A3005 RMK A01 T00071015  RH  086%=      5-min Rain = 0
KPD2 190523Z 32007G12KT 01/M01 A3005 RMK A01 T00071013  RH  086%=      5-min Rain = 0
KPD2 190524Z 31010KT 01/M01 A3005 RMK A01 T00071012  RH  087%=      5-min Rain = 0
KPD2 190525Z 30011KT 01/M01 A3005 RMK A01 T00071012  RH  087%=      5-min Rain = 0
KPD2 190526Z 31012KT 01/M01 A3005 RMK A01 T00071011  RH  088%=      5-min Rain = 0
KPD2 190527Z 31013KT 01/M01 A3005 RMK A01 T00071012  RH  088%=      5-min Rain = 0
KPD2 190528Z 31013KT 01/M01 A3005 RMK A01 T00071012  RH  087%=      5-min Rain = 0
KPD2 190529Z 32012KT 01/M01 A3005 RMK A01 T00071012  RH  087%=      5-min Rain = 0
KPD2 190530Z 31010G15KT 01/M01 A3005 RMK A01 T00071013  RH  087%=      5-min Rain = 0
KPD2 190531Z 32013KT 01/M01 A3005 RMK A01 T00071012  RH  087%=      5-min Rain = 0
KPD2 190532Z 32011G16KT 01/M01 A3005 RMK A01 T00071012  RH  087%=      5-min Rain = 0
KPD2 190533Z 33009G15KT 01/M01 A3005 RMK A01 T00071013  RH  087%=      5-min Rain = 0
KPD2 190534Z 33012G17KT 01/M01 A3005 RMK A01 T00071012  RH  087%=      5-min Rain = 0
KPD2 190535Z 31014KT 01/M01 A3005 RMK A01 T00061013  RH  087%=      5-min Rain = 0
KPD2 190536Z 32010KT 01/M01 A3005 RMK A01 T00071012  RH  087%=      5-min Rain = 0
KPD2 190537Z 32009KT 01/M01 A3005 RMK A01 T00071012  RH  087%=      5-min Rain = 0
KPD2 190538Z 32009KT 01/M01 A3005 RMK A01 T00071012  RH  087%=      5-min Rain = 0
KPD2 190539Z 31009KT 01/M01 A3005 RMK A01 T00071012  RH  088%=      5-min Rain = 0
KPD2 190540Z 32009KT 01/M01 A3005 RMK A01 T00071011  RH  088%=      5-min Rain = 0
KPD2 190541Z 32011KT 01/M01 A3005 RMK A01 T00071011  RH  088%=      5-min Rain = 0
KPD2 190542Z 31013KT 01/M01 A3005 RMK A01 T00071011  RH  088%=      5-min Rain = 0
KPD2 190543Z 31014G20KT 01/M01 A3005 RMK A01 T00071011  RH  088%=      5-min Rain = 0
KPD2 190544Z 32008KT 01/M01 A3005 RMK A01 T00081011  RH  087%=      5-min Rain = 0
KPD2 190545Z 31011KT 01/M01 A3005 RMK A01 T00081011  RH  087%=      5-min Rain = 0
KPD2 190546Z 32010KT 01/M01 A3005 RMK A01 T00081011  RH  087%=      5-min Rain = 0
KPD2 190547Z 32010KT 01/M01 A3005 RMK A01 T00091011  RH  086%=      5-min Rain = 0
KPD2 190548Z 32010KT 01/M01 A3006 RMK A01 T00091011  RH  086%=      5-min Rain = 0
KPD2 190549Z 33011KT 01/M01 A3006 RMK A01 T00101011  RH  086%=      5-min Rain = 0
KPD2 190550Z 32011KT 01/M01 A3006 RMK A01 T00101011  RH  086%=      5-min Rain = 0
KPD2 190551Z 32012KT 01/M01 A3006 RMK A01 T00101011  RH  085%=      5-min Rain = 0
KPD2 190552Z 32012KT 01/M01 A3006 RMK A01 T00111012  RH  085%=      5-min Rain = 0
KPD2 190553Z 33011KT 01/M01 A3006 RMK A01 T00111012  RH  085%=      5-min Rain = 0
KPD2 190554Z 32010KT 01/M01 A3006 RMK A01 T00111011  RH  085%=      5-min Rain = 0
KPD2 190555Z 31012KT 01/M01 A3006 RMK A01 T00111011  RH  085%=      5-min Rain = 0
KPD2 190556Z 31011G16KT 01/M01 A3006 RMK A01 T00111011  RH  085%=      5-min Rain = 0
KPD2 190557Z 32013G19KT 01/M01 A3006 RMK A01 T00111012  RH  085%=      5-min Rain = 0
KPD2 190558Z 32013KT 01/M01 A3006 RMK A01 T00121012  RH  084%=      5-min Rain = 0
KPD2 190559Z 31010KT 01/M01 A3006 RMK A01 T00121012  RH  084%=      5-min Rain = 0

Page generated in 0.0435 seconds.